Observation data for South Plains 3ENE on 01/17/2021      Previous  Date  Next       Current Mesonet Observations  Soil Data  Daily Summary Page  Observations in Plain Language
KSP2 170600Z 27003KT M02/M08 A3011 RMK A01 T10241083  RH  064%=      5-min Rain = 0
KSP2 170601Z 26003KT M03/M08 A3011 RMK A01 T10251083  RH  064%=      5-min Rain = 0
KSP2 170602Z 26004KT M03/M08 A3011 RMK A01 T10261083  RH  065%=      5-min Rain = 0
KSP2 170603Z 26004KT M03/M08 A3011 RMK A01 T10271083  RH  065%=      5-min Rain = 0
KSP2 170604Z 27004KT M03/M08 A3011 RMK A01 T10271083  RH  066%=      5-min Rain = 0
KSP2 170605Z 28005KT M03/M08 A3011 RMK A01 T10271082  RH  066%=      5-min Rain = 0
KSP2 170606Z 27004KT M03/M08 A3011 RMK A01 T10271082  RH  066%=      5-min Rain = 0
KSP2 170607Z 27003KT M03/M08 A3011 RMK A01 T10271081  RH  066%=      5-min Rain = 0
KSP2 170608Z 27003KT M03/M08 A3011 RMK A01 T10261081  RH  066%=      5-min Rain = 0
KSP2 170609Z 26002KT M03/M08 A3011 RMK A01 T10261081  RH  066%=      5-min Rain = 0
KSP2 170610Z 27003KT M03/M08 A3011 RMK A01 T10271082  RH  066%=      5-min Rain = 0
KSP2 170611Z 27004KT M03/M08 A3011 RMK A01 T10271081  RH  066%=      5-min Rain = 0
KSP2 170612Z 27004KT M03/M08 A3011 RMK A01 T10271081  RH  066%=      5-min Rain = 0
KSP2 170613Z 28004KT M03/M08 A3011 RMK A01 T10271080  RH  067%=      5-min Rain = 0
KSP2 170614Z 29005KT M03/M08 A3011 RMK A01 T10271080  RH  067%=      5-min Rain = 0
KSP2 170615Z 28005KT M03/M08 A3011 RMK A01 T10261079  RH  067%=      5-min Rain = 0
KSP2 170616Z 28005KT M03/M08 A3011 RMK A01 T10261079  RH  067%=      5-min Rain = 0
KSP2 170617Z 29005KT M03/M08 A3011 RMK A01 T10251078  RH  067%=      5-min Rain = 0
KSP2 170618Z 29005KT M02/M08 A3011 RMK A01 T10241078  RH  067%=      5-min Rain = 0
KSP2 170619Z 29006KT M02/M08 A3011 RMK A01 T10231078  RH  066%=      5-min Rain = 0
KSP2 170620Z 29005KT M02/M08 A3011 RMK A01 T10231077  RH  066%=      5-min Rain = 0
KSP2 170621Z 29006KT M02/M08 A3011 RMK A01 T10231077  RH  066%=      5-min Rain = 0
KSP2 170622Z 29005KT M02/M08 A3011 RMK A01 T10231078  RH  066%=      5-min Rain = 0
KSP2 170623Z 29005KT M02/M08 A3011 RMK A01 T10231078  RH  066%=      5-min Rain = 0
KSP2 170624Z 29005KT M02/M08 A3011 RMK A01 T10231077  RH  066%=      5-min Rain = 0
KSP2 170625Z 29005KT M02/M08 A3011 RMK A01 T10241078  RH  067%=      5-min Rain = 0
KSP2 170626Z 29005KT M02/M08 A3011 RMK A01 T10241077  RH  067%=      5-min Rain = 0
KSP2 170627Z 29005KT M03/M08 A3011 RMK A01 T10251078  RH  067%=      5-min Rain = 0
KSP2 170628Z 29006KT M03/M08 A3011 RMK A01 T10261078  RH  067%=      5-min Rain = 0
KSP2 170629Z 29005KT M03/M08 A3011 RMK A01 T10261077  RH  068%=      5-min Rain = 0
KSP2 170630Z 29005KT M03/M08 A3011 RMK A01 T10261077  RH  068%=      5-min Rain = 0
KSP2 170631Z 29005KT M03/M08 A3011 RMK A01 T10251077  RH  068%=      5-min Rain = 0
KSP2 170632Z 28005KT M03/M08 A3011 RMK A01 T10251076  RH  068%=      5-min Rain = 0
KSP2 170633Z 28005KT M02/M08 A3011 RMK A01 T10241075  RH  068%=      5-min Rain = 0
KSP2 170634Z 28005KT M02/M08 A3011 RMK A01 T10241076  RH  068%=      5-min Rain = 0
KSP2 170635Z 28005KT M02/M08 A3011 RMK A01 T10241076  RH  068%=      5-min Rain = 0
KSP2 170636Z 28005KT M02/M08 A3011 RMK A01 T10231075  RH  068%=      5-min Rain = 0
KSP2 170637Z 28004KT M02/M08 A3011 RMK A01 T10231075  RH  068%=      5-min Rain = 0
KSP2 170638Z 27003KT M02/M08 A3011 RMK A01 T10231075  RH  068%=      5-min Rain = 0
KSP2 170639Z 27003KT M02/M08 A3011 RMK A01 T10241076  RH  067%=      5-min Rain = 0
KSP2 170640Z 29002KT M03/M08 A3011 RMK A01 T10251077  RH  067%=      5-min Rain = 0
KSP2 170641Z 28002KT M03/M08 A3011 RMK A01 T10251077  RH  068%=      5-min Rain = 0
KSP2 170642Z 30000KT M03/M08 A3011 RMK A01 T10261077  RH  068%=      5-min Rain = 0
KSP2 170643Z 28002KT M03/M08 A3011 RMK A01 T10261077  RH  068%=      5-min Rain = 0
KSP2 170644Z 28001KT M03/M08 A3011 RMK A01 T10261077  RH  068%=      5-min Rain = 0
KSP2 170645Z 27002KT M03/M08 A3011 RMK A01 T10261076  RH  069%=      5-min Rain = 0
KSP2 170646Z 25001KT M03/M08 A3011 RMK A01 T10261076  RH  069%=      5-min Rain = 0
KSP2 170647Z 27002KT M03/M08 A3011 RMK A01 T10261075  RH  069%=      5-min Rain = 0
KSP2 170648Z 27003KT M03/M08 A3011 RMK A01 T10261075  RH  069%=      5-min Rain = 0
KSP2 170649Z 28003KT M03/M08 A3011 RMK A01 T10251075  RH  069%=      5-min Rain = 0
KSP2 170650Z 27003KT M03/M08 A3011 RMK A01 T10261076  RH  068%=      5-min Rain = 0
KSP2 170651Z 27003KT M03/M08 A3011 RMK A01 T10251075  RH  069%=      5-min Rain = 0
KSP2 170652Z 27002KT M03/M08 A301 RMK A01 T10261076  RH  069%=      5-min Rain = 0
KSP2 170653Z 26002KT M03/M08 A301 RMK A01 T10261075  RH  069%=      5-min Rain = 0
KSP2 170654Z 26002KT M03/M08 A301 RMK A01 T10271076  RH  069%=      5-min Rain = 0
KSP2 170655Z 26002KT M03/M08 A301 RMK A01 T10281076  RH  069%=      5-min Rain = 0
KSP2 170656Z 25003KT M03/M08 A301 RMK A01 T10291077  RH  069%=      5-min Rain = 0
KSP2 170657Z 25002KT M03/M08 A301 RMK A01 T10301078  RH  070%=      5-min Rain = 0
KSP2 170658Z 25002KT M03/M08 A301 RMK A01 T10321079  RH  070%=      5-min Rain = 0
KSP2 170659Z 26002KT M04/M08 A301 RMK A01 T10351082  RH  070%=      5-min Rain = 0
KSP2 170700Z 26002KT M04/M08 A301 RMK A01 T10371084  RH  070%=      5-min Rain = 0
KSP2 170701Z 26002KT M04/M08 A3011 RMK A01 T10391083  RH  071%=      5-min Rain = 0
KSP2 170702Z 26002KT M04/M08 A3011 RMK A01 T10401082  RH  073%=      5-min Rain = 0
KSP2 170703Z 27002KT M04/M08 A3011 RMK A01 T10411081  RH  074%=      5-min Rain = 0
KSP2 170704Z 27003KT M04/M08 A3011 RMK A01 T10411080  RH  074%=      5-min Rain = 0
KSP2 170705Z 27002KT M04/M08 A3011 RMK A01 T10401079  RH  074%=      5-min Rain = 0
KSP2 170706Z 27002KT M04/M08 A3011 RMK A01 T10401079  RH  074%=      5-min Rain = 0
KSP2 170707Z 26002KT M04/M08 A3011 RMK A01 T10401080  RH  074%=      5-min Rain = 0
KSP2 170708Z 27002KT M04/M08 A3011 RMK A01 T10401080  RH  074%=      5-min Rain = 0
KSP2 170709Z 26002KT M04/M08 A3011 RMK A01 T10401079  RH  075%=      5-min Rain = 0
KSP2 170710Z 27003KT M04/M08 A301 RMK A01 T10401078  RH  075%=      5-min Rain = 0
KSP2 170711Z 27003KT M04/M08 A301 RMK A01 T10391077  RH  075%=      5-min Rain = 0
KSP2 170712Z 27003KT M04/M08 A301 RMK A01 T10391077  RH  075%=      5-min Rain = 0
KSP2 170713Z 27003KT M04/M08 A301 RMK A01 T10391077  RH  075%=      5-min Rain = 0
KSP2 170714Z 27003KT M04/M08 A301 RMK A01 T10381077  RH  075%=      5-min Rain = 0
KSP2 170715Z 28003KT M04/M08 A301 RMK A01 T10381077  RH  074%=      5-min Rain = 0
KSP2 170716Z 28003KT M04/M08 A3011 RMK A01 T10381077  RH  074%=      5-min Rain = 0
KSP2 170717Z 28003KT M04/M08 A3011 RMK A01 T10381076  RH  075%=      5-min Rain = 0
KSP2 170718Z 28003KT M04/M08 A3011 RMK A01 T10381076  RH  075%=      5-min Rain = 0
KSP2 170719Z 28003KT M04/M08 A3011 RMK A01 T10381077  RH  074%=      5-min Rain = 0
KSP2 170720Z 28003KT M04/M08 A3011 RMK A01 T10391077  RH  074%=      5-min Rain = 0
KSP2 170721Z 28003KT M04/M08 A3011 RMK A01 T10391077  RH  075%=      5-min Rain = 0
KSP2 170722Z 28003KT M04/M08 A3011 RMK A01 T10401077  RH  075%=      5-min Rain = 0
KSP2 170723Z 29004KT M04/M08 A3011 RMK A01 T10401077  RH  075%=      5-min Rain = 0
KSP2 170724Z 29004KT M04/M08 A3011 RMK A01 T10411077  RH  076%=      5-min Rain = 0
KSP2 170725Z 29004KT M04/M08 A3011 RMK A01 T10411077  RH  076%=      5-min Rain = 0
KSP2 170726Z 29005KT M04/M08 A3011 RMK A01 T10411076  RH  077%=      5-min Rain = 0
KSP2 170727Z 29005KT M04/M08 A3011 RMK A01 T10411075  RH  077%=      5-min Rain = 0
KSP2 170728Z 29004KT M04/M07 A3011 RMK A01 T10401072  RH  078%=      5-min Rain = 0
KSP2 170729Z 29004KT M04/M07 A3011 RMK A01 T10381069  RH  079%=      5-min Rain = 0
KSP2 170730Z 28004KT M04/M07 A3011 RMK A01 T10351067  RH  079%=      5-min Rain = 0
KSP2 170731Z 28003KT M03/M07 A3011 RMK A01 T10321065  RH  078%=      5-min Rain = 0
KSP2 170732Z 26003KT M03/M06 A3011 RMK A01 T10301064  RH  077%=      5-min Rain = 0
KSP2 170733Z 26002KT M03/M07 A3011 RMK A01 T10291065  RH  076%=      5-min Rain = 0
KSP2 170734Z 27003KT M03/M07 A3011 RMK A01 T10281065  RH  076%=      5-min Rain = 0
KSP2 170735Z 27003KT M03/M07 A3011 RMK A01 T10281066  RH  075%=      5-min Rain = 0
KSP2 170736Z 28003KT M03/M07 A3011 RMK A01 T10281065  RH  076%=      5-min Rain = 0
KSP2 170737Z 29003KT M03/M07 A3011 RMK A01 T10281065  RH  076%=      5-min Rain = 0
KSP2 170738Z 30003KT M03/M07 A3011 RMK A01 T10281065  RH  076%=      5-min Rain = 0
KSP2 170739Z 29003KT M03/M06 A3011 RMK A01 T10281064  RH  076%=      5-min Rain = 0
KSP2 170740Z 30002KT M03/M07 A3011 RMK A01 T10281065  RH  076%=      5-min Rain = 0
KSP2 170741Z 30002KT M03/M07 A3011 RMK A01 T10281066  RH  075%=      5-min Rain = 0
KSP2 170742Z 29003KT M03/M07 A3011 RMK A01 T10301067  RH  075%=      5-min Rain = 0
KSP2 170743Z 29002KT M03/M07 A3011 RMK A01 T10301067  RH  076%=      5-min Rain = 0
KSP2 170744Z 28002KT M03/M07 A3011 RMK A01 T10301066  RH  076%=      5-min Rain = 0
KSP2 170745Z 27002KT M03/M07 A3011 RMK A01 T10311067  RH  076%=      5-min Rain = 0
KSP2 170746Z 26002KT M03/M07 A3011 RMK A01 T10321067  RH  076%=      5-min Rain = 0
KSP2 170747Z 26002KT M03/M07 A3011 RMK A01 T10311065  RH  077%=      5-min Rain = 0
KSP2 170748Z 27003KT M03/M06 A3011 RMK A01 T10291062  RH  078%=      5-min Rain = 0
KSP2 170749Z 27004KT M03/M06 A3011 RMK A01 T10271061  RH  078%=      5-min Rain = 0
KSP2 170750Z 28004KT M03/M06 A3011 RMK A01 T10271061  RH  077%=      5-min Rain = 0
KSP2 170751Z 28004KT M03/M06 A3011 RMK A01 T10261062  RH  076%=      5-min Rain = 0
KSP2 170752Z 28004KT M03/M06 A3011 RMK A01 T10261063  RH  076%=      5-min Rain = 0
KSP2 170753Z 28004KT M03/M06 A3011 RMK A01 T10261063  RH  076%=      5-min Rain = 0
KSP2 170754Z 28004KT M03/M06 A3011 RMK A01 T10261063  RH  076%=      5-min Rain = 0
KSP2 170755Z 28004KT M03/M06 A3011 RMK A01 T10251062  RH  076%=      5-min Rain = 0
KSP2 170756Z 28004KT M03/M06 A3011 RMK A01 T10251063  RH  075%=      5-min Rain = 0
KSP2 170757Z 28004KT M03/M06 A3011 RMK A01 T10251063  RH  075%=      5-min Rain = 0
KSP2 170758Z 28004KT M03/M06 A3011 RMK A01 T10251063  RH  075%=      5-min Rain = 0
KSP2 170759Z 28004KT M03/M06 A3011 RMK A01 T10251064  RH  075%=      5-min Rain = 0
KSP2 170800Z 28004KT M03/M07 A3011 RMK A01 T10261065  RH  075%=      5-min Rain = 0
KSP2 170801Z 28003KT M03/M07 A3011 RMK A01 T10261065  RH  075%=      5-min Rain = 0
KSP2 170802Z 27003KT M03/M07 A3011 RMK A01 T10271065  RH  075%=      5-min Rain = 0
KSP2 170803Z 28002KT M03/M07 A3011 RMK A01 T10271065  RH  075%=      5-min Rain = 0
KSP2 170804Z 28002KT M03/M07 A3011 RMK A01 T10281066  RH  075%=      5-min Rain = 0
KSP2 170805Z 27002KT M03/M07 A3011 RMK A01 T10291068  RH  075%=      5-min Rain = 0
KSP2 170806Z 27002KT M03/M07 A3011 RMK A01 T10301068  RH  075%=      5-min Rain = 0
KSP2 170807Z 28002KT M03/M07 A3011 RMK A01 T10311069  RH  075%=      5-min Rain = 0
KSP2 170808Z 28002KT M03/M07 A3011 RMK A01 T10311068  RH  076%=      5-min Rain = 0
KSP2 170809Z 27002KT M03/M07 A3011 RMK A01 T10311067  RH  077%=      5-min Rain = 0
KSP2 170810Z 27002KT M03/M07 A3011 RMK A01 T10311066  RH  077%=      5-min Rain = 0
KSP2 170811Z 27002KT M03/M07 A3011 RMK A01 T10311066  RH  077%=      5-min Rain = 0
KSP2 170812Z 27002KT M03/M07 A3011 RMK A01 T10311066  RH  077%=      5-min Rain = 0
KSP2 170813Z 27002KT M03/M07 A3011 RMK A01 T10311066  RH  077%=      5-min Rain = 0
KSP2 170814Z 27002KT M03/M07 A3011 RMK A01 T10311066  RH  077%=      5-min Rain = 0
KSP2 170815Z 27002KT M03/M07 A3011 RMK A01 T10311066  RH  077%=      5-min Rain = 0
KSP2 170816Z 27003KT M03/M07 A3011 RMK A01 T10311066  RH  077%=      5-min Rain = 0
KSP2 170817Z 27002KT M03/M07 A3011 RMK A01 T10311066  RH  076%=      5-min Rain = 0
KSP2 170818Z 27002KT M03/M07 A3011 RMK A01 T10311066  RH  076%=      5-min Rain = 0
KSP2 170819Z 27003KT M03/M07 A3011 RMK A01 T10301066  RH  076%=      5-min Rain = 0
KSP2 170820Z 27002KT M03/M07 A3011 RMK A01 T10301066  RH  076%=      5-min Rain = 0
KSP2 170821Z 27003KT M03/M07 A3011 RMK A01 T10301067  RH  076%=      5-min Rain = 0
KSP2 170822Z 26003KT M03/M07 A3011 RMK A01 T10291067  RH  076%=      5-min Rain = 0
KSP2 170823Z 26002KT M03/M07 A3011 RMK A01 T10301067  RH  076%=      5-min Rain = 0
KSP2 170824Z 27002KT M03/M07 A3011 RMK A01 T10301067  RH  076%=      5-min Rain = 0
KSP2 170825Z 27002KT M03/M07 A3011 RMK A01 T10301067  RH  075%=      5-min Rain = 0
KSP2 170826Z 27002KT M03/M07 A3011 RMK A01 T10301068  RH  075%=      5-min Rain = 0
KSP2 170827Z 28002KT M03/M07 A3011 RMK A01 T10311069  RH  075%=      5-min Rain = 0
KSP2 170828Z 27002KT M03/M07 A3011 RMK A01 T10321069  RH  076%=      5-min Rain = 0
KSP2 170829Z 28002KT M03/M07 A3012 RMK A01 T10331069  RH  076%=      5-min Rain = 0
KSP2 170830Z 28003KT M03/M07 A3012 RMK A01 T10331068  RH  076%=      5-min Rain = 0
KSP2 170831Z 29003KT M03/M07 A3012 RMK A01 T10331069  RH  077%=      5-min Rain = 0
KSP2 170832Z 29003KT M03/M07 A3012 RMK A01 T10341069  RH  077%=      5-min Rain = 0
KSP2 170833Z 29003KT M04/M07 A3012 RMK A01 T10351069  RH  077%=      5-min Rain = 0
KSP2 170834Z 30003KT M04/M07 A3012 RMK A01 T10351069  RH  077%=      5-min Rain = 0
KSP2 170835Z 30003KT M04/M07 A3012 RMK A01 T10351069  RH  078%=      5-min Rain = 0
KSP2 170836Z 30003KT M04/M07 A3012 RMK A01 T10351068  RH  078%=      5-min Rain = 0
KSP2 170837Z 31003KT M04/M07 A3012 RMK A01 T10351067  RH  078%=      5-min Rain = 0
KSP2 170838Z 32003KT M04/M07 A3012 RMK A01 T10351067  RH  078%=      5-min Rain = 0
KSP2 170839Z 30002KT M04/M07 A3012 RMK A01 T10351067  RH  078%=      5-min Rain = 0
KSP2 170840Z 30003KT M04/M07 A3012 RMK A01 T10351067  RH  079%=      5-min Rain = 0
KSP2 170841Z 30004KT M04/M07 A3012 RMK A01 T10351066  RH  079%=      5-min Rain = 0
KSP2 170842Z 30004KT M04/M07 A3012 RMK A01 T10351066  RH  079%=      5-min Rain = 0
KSP2 170843Z 30003KT M04/M07 A3012 RMK A01 T10351066  RH  079%=      5-min Rain = 0
KSP2 170844Z 30004KT M04/M07 A3012 RMK A01 T10351065  RH  080%=      5-min Rain = 0
KSP2 170845Z 29004KT M04/M06 A3012 RMK A01 T10351064  RH  080%=      5-min Rain = 0
KSP2 170846Z 30005KT M04/M06 A3012 RMK A01 T10351064  RH  081%=      5-min Rain = 0
KSP2 170847Z 31005KT M03/M06 A3012 RMK A01 T10331060  RH  082%=      5-min Rain = 0
KSP2 170848Z 30005KT M03/M06 A3012 RMK A01 T10301056  RH  082%=      5-min Rain = 0
KSP2 170849Z 31006KT M03/M05 A3012 RMK A01 T10281054  RH  082%=      5-min Rain = 0
KSP2 170850Z 31005KT M03/M05 A3012 RMK A01 T10261054  RH  081%=      5-min Rain = 0
KSP2 170851Z 31005KT M03/M05 A3012 RMK A01 T10251054  RH  081%=      5-min Rain = 0
KSP2 170852Z 31005KT M02/M05 A3012 RMK A01 T10241054  RH  080%=      5-min Rain = 0
KSP2 170853Z 31005KT M02/M05 A3012 RMK A01 T10241054  RH  080%=      5-min Rain = 0
KSP2 170854Z 31005KT M02/M05 A3012 RMK A01 T10241054  RH  080%=      5-min Rain = 0
KSP2 170855Z 30004KT M02/M05 A3012 RMK A01 T10231053  RH  080%=      5-min Rain = 0
KSP2 170856Z 30004KT M02/M05 A3012 RMK A01 T10221053  RH  080%=      5-min Rain = 0
KSP2 170857Z 30004KT M02/M05 A3012 RMK A01 T10221052  RH  080%=      5-min Rain = 0
KSP2 170858Z 30005KT M02/M05 A3012 RMK A01 T10211050  RH  080%=      5-min Rain = 0
KSP2 170859Z 30005KT M02/M05 A3012 RMK A01 T10191048  RH  080%=      5-min Rain = 0
KSP2 170900Z 30005KT M02/M05 A3012 RMK A01 T10181048  RH  080%=      5-min Rain = 0
KSP2 170901Z 30004KT M02/M05 A3012 RMK A01 T10171047  RH  080%=      5-min Rain = 0
KSP2 170902Z 29003KT M02/M05 A3012 RMK A01 T10171049  RH  079%=      5-min Rain = 0
KSP2 170903Z 29002KT M02/M05 A3012 RMK A01 T10181051  RH  078%=      5-min Rain = 0
KSP2 170904Z 26001KT M02/M06 A3012 RMK A01 T10221060  RH  075%=      5-min Rain = 0
KSP2 170905Z 18001KT M03/M07 A3012 RMK A01 T10271065  RH  075%=      5-min Rain = 0
KSP2 170906Z 17002KT M03/M07 A3012 RMK A01 T10311067  RH  076%=      5-min Rain = 0
KSP2 170907Z 19002KT M03/M07 A3012 RMK A01 T10331066  RH  078%=      5-min Rain = 0
KSP2 170908Z 20002KT M03/M06 A3012 RMK A01 T10341063  RH  081%=      5-min Rain = 0
KSP2 170909Z 21002KT M03/M06 A3012 RMK A01 T10341059  RH  083%=      5-min Rain = 0
KSP2 170910Z 25001KT M03/M06 A3012 RMK A01 T10321057  RH  083%=      5-min Rain = 0
KSP2 170911Z 25002KT M03/M06 A3012 RMK A01 T10311055  RH  084%=      5-min Rain = 0
KSP2 170912Z 26002KT M03/M05 A3012 RMK A01 T10291053  RH  083%=      5-min Rain = 0
KSP2 170913Z 27002KT M03/M05 A3012 RMK A01 T10281054  RH  083%=      5-min Rain = 0
KSP2 170914Z 27002KT M03/M05 A3012 RMK A01 T10281054  RH  082%=      5-min Rain = 0
KSP2 170915Z 27003KT M03/M06 A3012 RMK A01 T10281055  RH  081%=      5-min Rain = 0
KSP2 170916Z 27003KT M03/M06 A3012 RMK A01 T10281057  RH  081%=      5-min Rain = 0
KSP2 170917Z 27003KT M03/M06 A3012 RMK A01 T10291057  RH  081%=      5-min Rain = 0
KSP2 170918Z 26004KT M03/M06 A3012 RMK A01 T10291056  RH  082%=      5-min Rain = 0
KSP2 170919Z 26004KT M03/M05 A3012 RMK A01 T10281054  RH  083%=      5-min Rain = 0
KSP2 170920Z 26004KT M03/M05 A3012 RMK A01 T10281054  RH  082%=      5-min Rain = 0
KSP2 170921Z 26004KT M03/M05 A3012 RMK A01 T10281054  RH  082%=      5-min Rain = 0
KSP2 170922Z 26004KT M03/M05 A3012 RMK A01 T10281053  RH  083%=      5-min Rain = 0
KSP2 170923Z 27004KT M03/M05 A3012 RMK A01 T10271053  RH  083%=      5-min Rain = 0
KSP2 170924Z 27003KT M03/M05 A3012 RMK A01 T10271053  RH  082%=      5-min Rain = 0
KSP2 170925Z 27003KT M03/M05 A3012 RMK A01 T10271053  RH  082%=      5-min Rain = 0
KSP2 170926Z 27002KT M03/M05 A3012 RMK A01 T10261052  RH  082%=      5-min Rain = 0
KSP2 170927Z 27002KT M03/M05 A3012 RMK A01 T10251052  RH  082%=      5-min Rain = 0
KSP2 170928Z 28003KT M03/M05 A3012 RMK A01 T10251052  RH  082%=      5-min Rain = 0
KSP2 170929Z 28004KT M02/M05 A3012 RMK A01 T10241051  RH  082%=      5-min Rain = 0
KSP2 170930Z 28004KT M02/M05 A3012 RMK A01 T10241052  RH  081%=      5-min Rain = 0
KSP2 170931Z 27004KT M02/M05 A3012 RMK A01 T10241053  RH  081%=      5-min Rain = 0
KSP2 170932Z 24003KT M03/M06 A3012 RMK A01 T10271057  RH  080%=      5-min Rain = 0
KSP2 170933Z 19002KT M03/M06 A3012 RMK A01 T10301061  RH  080%=      5-min Rain = 0
KSP2 170934Z 20003KT M03/M06 A3012 RMK A01 T10341064  RH  080%=      5-min Rain = 0
KSP2 170935Z 22003KT M04/M07 A3012 RMK A01 T10371066  RH  080%=      5-min Rain = 0
KSP2 170936Z 23003KT M04/M07 A3012 RMK A01 T10381065  RH  082%=      5-min Rain = 0
KSP2 170937Z 24003KT M04/M06 A3012 RMK A01 T10391064  RH  083%=      5-min Rain = 0
KSP2 170938Z 25004KT M04/M06 A3012 RMK A01 T10391063  RH  083%=      5-min Rain = 0
KSP2 170939Z 25004KT M04/M06 A3012 RMK A01 T10391063  RH  083%=      5-min Rain = 0
KSP2 170940Z 25003KT M04/M06 A3012 RMK A01 T10391063  RH  083%=      5-min Rain = 0
KSP2 170941Z 25004KT M04/M07 A3012 RMK A01 T10401065  RH  083%=      5-min Rain = 0
KSP2 170942Z 25003KT M04/M07 A3012 RMK A01 T10421067  RH  082%=      5-min Rain = 0
KSP2 170943Z 24002KT M04/M07 A3012 RMK A01 T10441070  RH  082%=      5-min Rain = 0
KSP2 170944Z 24002KT M05/M07 A3012 RMK A01 T10461070  RH  083%=      5-min Rain = 0
KSP2 170945Z 25002KT M05/M07 A3012 RMK A01 T10461069  RH  084%=      5-min Rain = 0
KSP2 170946Z 24003KT M05/M07 A3012 RMK A01 T10461067  RH  085%=      5-min Rain = 0
KSP2 170947Z 25003KT M05/M07 A3012 RMK A01 T10451066  RH  086%=      5-min Rain = 0
KSP2 170948Z 25003KT M04/M06 A3012 RMK A01 T10441064  RH  086%=      5-min Rain = 0
KSP2 170949Z 25003KT M04/M06 A3012 RMK A01 T10431064  RH  086%=      5-min Rain = 0
KSP2 170950Z 25003KT M04/M06 A3012 RMK A01 T10431064  RH  085%=      5-min Rain = 0
KSP2 170951Z 24003KT M04/M07 A3012 RMK A01 T10431065  RH  085%=      5-min Rain = 0
KSP2 170952Z 23002KT M04/M07 A3012 RMK A01 T10431068  RH  083%=      5-min Rain = 0
KSP2 170953Z 23002KT M05/M07 A3012 RMK A01 T10461072  RH  082%=      5-min Rain = 0
KSP2 170954Z 22002KT M05/M07 A3012 RMK A01 T10481073  RH  083%=      5-min Rain = 0
KSP2 170955Z 24003KT M05/M07 A3012 RMK A01 T10491073  RH  084%=      5-min Rain = 0
KSP2 170956Z 24003KT M05/M07 A3012 RMK A01 T10491072  RH  084%=      5-min Rain = 0
KSP2 170957Z 25003KT M05/M07 A3012 RMK A01 T10491071  RH  085%=      5-min Rain = 0
KSP2 170958Z 25003KT M05/M07 A3012 RMK A01 T10491070  RH  085%=      5-min Rain = 0
KSP2 170959Z 25003KT M05/M07 A3012 RMK A01 T10491070  RH  085%=      5-min Rain = 0
KSP2 171000Z 25003KT M05/M07 A3012 RMK A01 T10491071  RH  085%=      5-min Rain = 0
KSP2 171001Z 26004KT M05/M07 A3012 RMK A01 T10501072  RH  085%=      5-min Rain = 0
KSP2 171002Z 26003KT M05/M07 A3012 RMK A01 T10511073  RH  084%=      5-min Rain = 0
KSP2 171003Z 26003KT M05/M07 A3012 RMK A01 T10521074  RH  084%=      5-min Rain = 0
KSP2 171004Z 27003KT M05/M07 A3012 RMK A01 T10521074  RH  085%=      5-min Rain = 0
KSP2 171005Z 27002KT M05/M07 A3012 RMK A01 T10531074  RH  085%=      5-min Rain = 0
KSP2 171006Z 27002KT M05/M07 A3012 RMK A01 T10531073  RH  086%=      5-min Rain = 0
KSP2 171007Z 26001KT M05/M07 A3012 RMK A01 T10531073  RH  086%=      5-min Rain = 0
KSP2 171008Z 28002KT M05/M07 A3012 RMK A01 T10521071  RH  087%=      5-min Rain = 0
KSP2 171009Z 28004KT M05/M07 A3012 RMK A01 T10511069  RH  087%=      5-min Rain = 0
KSP2 171010Z 29003KT M05/M07 A3012 RMK A01 T10501068  RH  087%=      5-min Rain = 0
KSP2 171011Z 29003KT M05/M07 A3012 RMK A01 T10491067  RH  087%=      5-min Rain = 0
KSP2 171012Z 29003KT M05/M07 A3012 RMK A01 T10481067  RH  087%=      5-min Rain = 0
KSP2 171013Z 29002KT M05/M07 A3012 RMK A01 T10481067  RH  086%=      5-min Rain = 0
KSP2 171014Z 29002KT M05/M07 A3012 RMK A01 T10481068  RH  086%=      5-min Rain = 0
KSP2 171015Z 30001KT M05/M07 A3012 RMK A01 T10481069  RH  086%=      5-min Rain = 0
KSP2 171016Z 29002KT M05/M07 A3012 RMK A01 T10491069  RH  086%=      5-min Rain = 0
KSP2 171017Z 30003KT M05/M07 A3012 RMK A01 T10491069  RH  086%=      5-min Rain = 0
KSP2 171018Z 30002KT M05/M07 A3012 RMK A01 T10491068  RH  086%=      5-min Rain = 0
KSP2 171019Z 30002KT M05/M07 A3012 RMK A01 T10481067  RH  087%=      5-min Rain = 0
KSP2 171020Z 30002KT M05/M07 A3012 RMK A01 T10481066  RH  087%=      5-min Rain = 0
KSP2 171021Z 30002KT M05/M07 A3012 RMK A01 T10481067  RH  087%=      5-min Rain = 0
KSP2 171022Z 30002KT M05/M07 A3012 RMK A01 T10481067  RH  086%=      5-min Rain = 0
KSP2 171023Z 30002KT M05/M07 A3011 RMK A01 T10491069  RH  086%=      5-min Rain = 0
KSP2 171024Z 29002KT M05/M07 A3011 RMK A01 T10501070  RH  085%=      5-min Rain = 0
KSP2 171025Z 29002KT M05/M07 A3011 RMK A01 T10511072  RH  085%=      5-min Rain = 0
KSP2 171026Z 30003KT M05/M07 A3011 RMK A01 T10521072  RH  086%=      5-min Rain = 0
KSP2 171027Z 30003KT M05/M07 A3011 RMK A01 T10511071  RH  086%=      5-min Rain = 0
KSP2 171028Z 30002KT M05/M07 A3011 RMK A01 T10511070  RH  087%=      5-min Rain = 0
KSP2 171029Z 29002KT M05/M07 A3012 RMK A01 T10521070  RH  087%=      5-min Rain = 0
KSP2 171030Z 29001KT M05/M07 A3012 RMK A01 T10531072  RH  086%=      5-min Rain = 0
KSP2 171031Z 30001KT M05/M07 A3012 RMK A01 T10531072  RH  087%=      5-min Rain = 0
KSP2 171032Z 30001KT M05/M07 A3012 RMK A01 T10531071  RH  087%=      5-min Rain = 0
KSP2 171033Z 30002KT M05/M07 A3012 RMK A01 T10531071  RH  087%=      5-min Rain = 0
KSP2 171034Z 29002KT M05/M07 A3012 RMK A01 T10531071  RH  087%=      5-min Rain = 0
KSP2 171035Z 29002KT M05/M07 A3012 RMK A01 T10531070  RH  088%=      5-min Rain = 0
KSP2 171036Z 29002KT M05/M07 A3011 RMK A01 T10521069  RH  088%=      5-min Rain = 0
KSP2 171037Z 29003KT M05/M07 A3011 RMK A01 T10511068  RH  088%=      5-min Rain = 0
KSP2 171038Z 29003KT M05/M07 A3011 RMK A01 T10521070  RH  087%=      5-min Rain = 0
KSP2 171039Z 29004KT M05/M07 A3011 RMK A01 T10531071  RH  087%=      5-min Rain = 0
KSP2 171040Z 29004KT M05/M07 A3011 RMK A01 T10531071  RH  087%=      5-min Rain = 0
KSP2 171041Z 29004KT M05/M07 A3011 RMK A01 T10531071  RH  087%=      5-min Rain = 0
KSP2 171042Z 29003KT M05/M07 A3011 RMK A01 T10531070  RH  088%=      5-min Rain = 0
KSP2 171043Z 30003KT M05/M07 A3011 RMK A01 T10531070  RH  088%=      5-min Rain = 0
KSP2 171044Z 30003KT M05/M07 A3011 RMK A01 T10521069  RH  088%=      5-min Rain = 0
KSP2 171045Z 30003KT M05/M07 A3011 RMK A01 T10521069  RH  088%=      5-min Rain = 0
KSP2 171046Z 30003KT M05/M07 A3011 RMK A01 T10521069  RH  088%=      5-min Rain = 0
KSP2 171047Z 30003KT M05/M07 A3011 RMK A01 T10521069  RH  087%=      5-min Rain = 0
KSP2 171048Z 30003KT M05/M07 A3011 RMK A01 T10521069  RH  087%=      5-min Rain = 0
KSP2 171049Z 30003KT M05/M07 A3011 RMK A01 T10521069  RH  087%=      5-min Rain = 0
KSP2 171050Z 30003KT M05/M07 A3011 RMK A01 T10511069  RH  087%=      5-min Rain = 0
KSP2 171051Z 30004KT M05/M07 A3011 RMK A01 T10511069  RH  087%=      5-min Rain = 0
KSP2 171052Z 30004KT M05/M07 A3011 RMK A01 T10511069  RH  087%=      5-min Rain = 0
KSP2 171053Z 30004KT M05/M07 A3011 RMK A01 T10511070  RH  087%=      5-min Rain = 0
KSP2 171054Z 30004KT M05/M07 A3011 RMK A01 T10511071  RH  086%=      5-min Rain = 0
KSP2 171055Z 30004KT M05/M07 A3011 RMK A01 T10521071  RH  086%=      5-min Rain = 0
KSP2 171056Z 29004KT M05/M07 A3011 RMK A01 T10531072  RH  087%=      5-min Rain = 0
KSP2 171057Z 30004KT M05/M07 A3011 RMK A01 T10531072  RH  087%=      5-min Rain = 0
KSP2 171058Z 30004KT M05/M07 A3011 RMK A01 T10531071  RH  087%=      5-min Rain = 0
KSP2 171059Z 29003KT M05/M07 A3011 RMK A01 T10531071  RH  087%=      5-min Rain = 0
KSP2 171100Z 29004KT M05/M07 A3011 RMK A01 T10531070  RH  087%=      5-min Rain = 0
KSP2 171101Z 29003KT M05/M07 A3011 RMK A01 T10521070  RH  087%=      5-min Rain = 0
KSP2 171102Z 29003KT M05/M07 A3011 RMK A01 T10521070  RH  087%=      5-min Rain = 0
KSP2 171103Z 29004KT M05/M07 A3012 RMK A01 T10521071  RH  087%=      5-min Rain = 0
KSP2 171104Z 29004KT M05/M07 A3012 RMK A01 T10521071  RH  087%=      5-min Rain = 0
KSP2 171105Z 28004KT M05/M07 A3012 RMK A01 T10521072  RH  086%=      5-min Rain = 0
KSP2 171106Z 29003KT M05/M07 A3012 RMK A01 T10531073  RH  086%=      5-min Rain = 0
KSP2 171107Z 29004KT M05/M07 A3012 RMK A01 T10541073  RH  086%=      5-min Rain = 0
KSP2 171108Z 29004KT M05/M07 A3012 RMK A01 T10541074  RH  086%=      5-min Rain = 0
KSP2 171109Z 28003KT M05/M07 A3012 RMK A01 T10541073  RH  087%=      5-min Rain = 0
KSP2 171110Z 29004KT M05/M07 A3012 RMK A01 T10541072  RH  087%=      5-min Rain = 0
KSP2 171111Z 29003KT M05/M07 A3012 RMK A01 T10541072  RH  087%=      5-min Rain = 0
KSP2 171112Z 28004KT M06/M07 A3012 RMK A01 T10551074  RH  086%=      5-min Rain = 0
KSP2 171113Z 28004KT M06/M08 A3012 RMK A01 T10561075  RH  086%=      5-min Rain = 0
KSP2 171114Z 29004KT M06/M08 A3012 RMK A01 T10571077  RH  086%=      5-min Rain = 0
KSP2 171115Z 29004KT M06/M08 A3012 RMK A01 T10581077  RH  086%=      5-min Rain = 0
KSP2 171116Z 29005KT M06/M08 A3012 RMK A01 T10581076  RH  087%=      5-min Rain = 0
KSP2 171117Z 29005KT M06/M08 A3012 RMK A01 T10591076  RH  087%=      5-min Rain = 0
KSP2 171118Z 28004KT M06/M08 A3012 RMK A01 T10591076  RH  088%=      5-min Rain = 0
KSP2 171119Z 28003KT M06/M08 A3012 RMK A01 T10591075  RH  088%=      5-min Rain = 0
KSP2 171120Z 28003KT M06/M08 A3012 RMK A01 T10591075  RH  088%=      5-min Rain = 0
KSP2 171121Z 28003KT M06/M08 A3012 RMK A01 T10591075  RH  089%=      5-min Rain = 0
KSP2 171122Z 28003KT M06/M08 A3012 RMK A01 T10591075  RH  089%=      5-min Rain = 0
KSP2 171123Z 28003KT M06/M07 A3012 RMK A01 T10591074  RH  089%=      5-min Rain = 0
KSP2 171124Z 27002KT M06/M07 A3012 RMK A01 T10581073  RH  089%=      5-min Rain = 0
KSP2 171125Z 28002KT M06/M07 A3012 RMK A01 T10581073  RH  089%=      5-min Rain = 0
KSP2 171126Z 27002KT M06/M07 A3012 RMK A01 T10581074  RH  089%=      5-min Rain = 0
KSP2 171127Z 27002KT M06/M07 A3012 RMK A01 T10581074  RH  089%=      5-min Rain = 0
KSP2 171128Z 28001KT M06/M08 A3012 RMK A01 T10591075  RH  089%=      5-min Rain = 0
KSP2 171129Z 28001KT M06/M08 A3012 RMK A01 T10591075  RH  089%=      5-min Rain = 0
KSP2 171130Z 27002KT M06/M08 A3012 RMK A01 T10591075  RH  089%=      5-min Rain = 0
KSP2 171131Z 27002KT M06/M07 A3012 RMK A01 T10591074  RH  089%=      5-min Rain = 0
KSP2 171132Z 26002KT M06/M07 A3012 RMK A01 T10581073  RH  090%=      5-min Rain = 0
KSP2 171133Z 27002KT M06/M07 A3012 RMK A01 T10581072  RH  090%=      5-min Rain = 0
KSP2 171134Z 28002KT M06/M07 A3012 RMK A01 T10571072  RH  090%=      5-min Rain = 0
KSP2 171135Z 28003KT M06/M07 A3012 RMK A01 T10571071  RH  090%=      5-min Rain = 0
KSP2 171136Z 28003KT M06/M07 A3012 RMK A01 T10561070  RH  090%=      5-min Rain = 0
KSP2 171137Z 29003KT M06/M07 A3012 RMK A01 T10551070  RH  090%=      5-min Rain = 0
KSP2 171138Z 29004KT M06/M07 A3012 RMK A01 T10551070  RH  089%=      5-min Rain = 0
KSP2 171139Z 29004KT M05/M07 A3012 RMK A01 T10541070  RH  089%=      5-min Rain = 0
KSP2 171140Z 28004KT M05/M07 A3012 RMK A01 T10541070  RH  089%=      5-min Rain = 0
KSP2 171141Z 29003KT M05/M07 A3012 RMK A01 T10541070  RH  089%=      5-min Rain = 0
KSP2 171142Z 28003KT M05/M07 A3012 RMK A01 T10541070  RH  088%=      5-min Rain = 0
KSP2 171143Z 28003KT M05/M07 A3012 RMK A01 T10541071  RH  088%=      5-min Rain = 0
KSP2 171144Z 28003KT M05/M07 A3012 RMK A01 T10541070  RH  088%=      5-min Rain = 0
KSP2 171145Z 28003KT M05/M07 A3012 RMK A01 T10541070  RH  088%=      5-min Rain = 0
KSP2 171146Z 27003KT M06/M07 A3012 RMK A01 T10551071  RH  088%=      5-min Rain = 0
KSP2 171147Z 28003KT M06/M07 A3012 RMK A01 T10551072  RH  088%=      5-min Rain = 0
KSP2 171148Z 28003KT M06/M07 A3012 RMK A01 T10551071  RH  088%=      5-min Rain = 0
KSP2 171149Z 28003KT M06/M07 A3012 RMK A01 T10551071  RH  088%=      5-min Rain = 0
KSP2 171150Z 28003KT M06/M07 A3012 RMK A01 T10561072  RH  088%=      5-min Rain = 0
KSP2 171151Z 27002KT M06/M07 A3012 RMK A01 T10551071  RH  089%=      5-min Rain = 0
KSP2 171152Z 27003KT M06/M07 A3012 RMK A01 T10561071  RH  089%=      5-min Rain = 0
KSP2 171153Z 26002KT M06/M07 A3012 RMK A01 T10551071  RH  089%=      5-min Rain = 0
KSP2 171154Z 25002KT M06/M07 A3012 RMK A01 T10551071  RH  089%=      5-min Rain = 0
KSP2 171155Z 26002KT M06/M07 A3012 RMK A01 T10551070  RH  089%=      5-min Rain = 0
KSP2 171156Z 26001KT M05/M07 A3012 RMK A01 T10541070  RH  089%=      5-min Rain = 0
KSP2 171157Z 27002KT M05/M07 A3012 RMK A01 T10541070  RH  089%=      5-min Rain = 0
KSP2 171158Z 27002KT M05/M07 A3012 RMK A01 T10541070  RH  088%=      5-min Rain = 0
KSP2 171159Z 27001KT M05/M07 A3012 RMK A01 T10541070  RH  088%=      5-min Rain = 0
KSP2 171200Z 27001KT M05/M07 A3012 RMK A01 T10541071  RH  088%=      5-min Rain = 0
KSP2 171201Z 25001KT M05/M07 A3012 RMK A01 T10541071  RH  088%=      5-min Rain = 0
KSP2 171202Z 25001KT M05/M07 A3012 RMK A01 T10541071  RH  088%=      5-min Rain = 0
KSP2 171203Z 25001KT M05/M07 A3012 RMK A01 T10541072  RH  087%=      5-min Rain = 0
KSP2 171204Z 26001KT M05/M07 A3012 RMK A01 T10541072  RH  087%=      5-min Rain = 0
KSP2 171205Z 27001KT M05/M07 A3012 RMK A01 T10541071  RH  088%=      5-min Rain = 0
KSP2 171206Z 27001KT M05/M07 A3012 RMK A01 T10541071  RH  088%=      5-min Rain = 0
KSP2 171207Z 28001KT M05/M07 A3012 RMK A01 T10541071  RH  088%=      5-min Rain = 0
KSP2 171208Z 28001KT M05/M07 A3013 RMK A01 T10541071  RH  088%=      5-min Rain = 0
KSP2 171209Z 29001KT M05/M07 A3013 RMK A01 T10541071  RH  088%=      5-min Rain = 0
KSP2 171210Z 27000KT M05/M07 A3013 RMK A01 T10541071  RH  088%=      5-min Rain = 0
KSP2 171211Z 30001KT M05/M07 A3013 RMK A01 T10541071  RH  088%=      5-min Rain = 0
KSP2 171212Z 30001KT M05/M07 A3013 RMK A01 T10541072  RH  088%=      5-min Rain = 0
KSP2 171213Z 31002KT M05/M07 A3013 RMK A01 T10541071  RH  088%=      5-min Rain = 0
KSP2 171214Z 30002KT M05/M07 A3013 RMK A01 T10541071  RH  088%=      5-min Rain = 0
KSP2 171215Z 30001KT M05/M07 A3013 RMK A01 T10541072  RH  088%=      5-min Rain = 0
KSP2 171216Z 31001KT M06/M07 A3013 RMK A01 T10551072  RH  088%=      5-min Rain = 0
KSP2 171217Z 31001KT M06/M07 A3013 RMK A01 T10551073  RH  087%=      5-min Rain = 0
KSP2 171218Z 31001KT M06/M07 A3013 RMK A01 T10561074  RH  087%=      5-min Rain = 0
KSP2 171219Z 30001KT M06/M07 A3013 RMK A01 T10571074  RH  087%=      5-min Rain = 0
KSP2 171220Z 31001KT M06/M07 A3013 RMK A01 T10561073  RH  088%=      5-min Rain = 0
KSP2 171221Z 31001KT M06/M07 A3013 RMK A01 T10561073  RH  088%=      5-min Rain = 0
KSP2 171222Z 31002KT M06/M07 A3013 RMK A01 T10561073  RH  088%=      5-min Rain = 0
KSP2 171223Z 32001KT M06/M07 A3013 RMK A01 T10561073  RH  088%=      5-min Rain = 0
KSP2 171224Z 32002KT M06/M08 A3013 RMK A01 T10571075  RH  087%=      5-min Rain = 0
KSP2 171225Z 32002KT M06/M08 A3013 RMK A01 T10571076  RH  087%=      5-min Rain = 0
KSP2 171226Z 32002KT M06/M08 A3013 RMK A01 T10571075  RH  088%=      5-min Rain = 0
KSP2 171227Z 32002KT M06/M07 A3013 RMK A01 T10571074  RH  088%=      5-min Rain = 0
KSP2 171228Z 33001KT M06/M07 A3014 RMK A01 T10571073  RH  088%=      5-min Rain = 0
KSP2 171229Z 32001KT M06/M07 A3014 RMK A01 T10561072  RH  089%=      5-min Rain = 0
KSP2 171230Z 32002KT M06/M07 A3014 RMK A01 T10561072  RH  088%=      5-min Rain = 0
KSP2 171231Z 32002KT M06/M07 A3014 RMK A01 T10561072  RH  088%=      5-min Rain = 0
KSP2 171232Z 32002KT M06/M07 A3014 RMK A01 T10551072  RH  088%=      5-min Rain = 0
KSP2 171233Z 33002KT M06/M07 A3014 RMK A01 T10551073  RH  088%=      5-min Rain = 0
KSP2 171234Z 31001KT M06/M07 A3014 RMK A01 T10561073  RH  087%=      5-min Rain = 0
KSP2 171235Z 32001KT M06/M07 A3013 RMK A01 T10561074  RH  087%=      5-min Rain = 0
KSP2 171236Z 30001KT M06/M07 A3014 RMK A01 T10551074  RH  087%=      5-min Rain = 0
KSP2 171237Z 31001KT M06/M07 A3014 RMK A01 T10551074  RH  087%=      5-min Rain = 0
KSP2 171238Z 31002KT M06/M07 A3014 RMK A01 T10551073  RH  087%=      5-min Rain = 0
KSP2 171239Z 31002KT M05/M07 A3014 RMK A01 T10541072  RH  087%=      5-min Rain = 0
KSP2 171240Z 30001KT M05/M07 A3014 RMK A01 T10531071  RH  087%=      5-min Rain = 0
KSP2 171241Z 30001KT M05/M07 A3014 RMK A01 T10521070  RH  087%=      5-min Rain = 0
KSP2 171242Z 29002KT M05/M07 A3014 RMK A01 T10511069  RH  087%=      5-min Rain = 0
KSP2 171243Z 30002KT M05/M07 A3014 RMK A01 T10501069  RH  087%=      5-min Rain = 0
KSP2 171244Z 30002KT M05/M07 A3014 RMK A01 T10501070  RH  086%=      5-min Rain = 0
KSP2 171245Z 31002KT M05/M07 A3014 RMK A01 T10501071  RH  085%=      5-min Rain = 0
KSP2 171246Z 29001KT M05/M07 A3014 RMK A01 T10511073  RH  085%=      5-min Rain = 0
KSP2 171247Z 30001KT M05/M07 A3014 RMK A01 T10511073  RH  085%=      5-min Rain = 0
KSP2 171248Z 28000KT M05/M07 A3014 RMK A01 T10511072  RH  085%=      5-min Rain = 0
KSP2 171249Z 28001KT M05/M07 A3014 RMK A01 T10501071  RH  086%=      5-min Rain = 0
KSP2 171250Z 32001KT M05/M07 A3014 RMK A01 T10491070  RH  086%=      5-min Rain = 0
KSP2 171251Z 31001KT M05/M07 A3014 RMK A01 T10491069  RH  086%=      5-min Rain = 0
KSP2 171252Z 31000KT M05/M07 A3014 RMK A01 T10481069  RH  085%=      5-min Rain = 0
KSP2 171253Z 32000KT M05/M07 A3015 RMK A01 T10471068  RH  085%=      5-min Rain = 0
KSP2 171254Z 32001KT M05/M07 A3015 RMK A01 T10471068  RH  085%=      5-min Rain = 0
KSP2 171255Z 31001KT M05/M07 A3015 RMK A01 T10461068  RH  085%=      5-min Rain = 0
KSP2 171256Z 30001KT M05/M07 A3015 RMK A01 T10461068  RH  084%=      5-min Rain = 0
KSP2 171257Z 33001KT M05/M07 A3015 RMK A01 T10461069  RH  084%=      5-min Rain = 0
KSP2 171258Z 32002KT M05/M07 A3015 RMK A01 T10461069  RH  084%=      5-min Rain = 0
KSP2 171259Z 32003KT M05/M07 A3015 RMK A01 T10451069  RH  083%=      5-min Rain = 0
KSP2 171300Z 33003KT M05/M07 A3015 RMK A01 T10461070  RH  083%=      5-min Rain = 0
KSP2 171301Z 33003KT M05/M07 A3015 RMK A01 T10461071  RH  083%=      5-min Rain = 0
KSP2 171302Z 33003KT M05/M07 A3015 RMK A01 T10461070  RH  083%=      5-min Rain = 0
KSP2 171303Z 33003KT M04/M07 A3015 RMK A01 T10441069  RH  083%=      5-min Rain = 0
KSP2 171304Z 33003KT M04/M07 A3015 RMK A01 T10421068  RH  083%=      5-min Rain = 0
KSP2 171305Z 33003KT M04/M07 A3015 RMK A01 T10411067  RH  082%=      5-min Rain = 0
KSP2 171306Z 33003KT M04/M07 A3015 RMK A01 T10391066  RH  081%=      5-min Rain = 0
KSP2 171307Z 32003KT M04/M07 A3015 RMK A01 T10381067  RH  081%=      5-min Rain = 0
KSP2 171308Z 32003KT M04/M07 A3015 RMK A01 T10371067  RH  080%=      5-min Rain = 0
KSP2 171309Z 32003KT M04/M07 A3015 RMK A01 T10371067  RH  080%=      5-min Rain = 0
KSP2 171310Z 32004KT M04/M07 A3015 RMK A01 T10361067  RH  079%=      5-min Rain = 0
KSP2 171311Z 32004KT M04/M07 A3015 RMK A01 T10361067  RH  079%=      5-min Rain = 0
KSP2 171312Z 32003KT M04/M07 A3015 RMK A01 T10361067  RH  079%=      5-min Rain = 0
KSP2 171313Z 32003KT M04/M07 A3015 RMK A01 T10361068  RH  079%=      5-min Rain = 0
KSP2 171314Z 32003KT M04/M07 A3015 RMK A01 T10361068  RH  079%=      5-min Rain = 0
KSP2 171315Z 31003KT M04/M07 A3015 RMK A01 T10361068  RH  079%=      5-min Rain = 0
KSP2 171316Z 32002KT M04/M07 A3015 RMK A01 T10371068  RH  079%=      5-min Rain = 0
KSP2 171317Z 32003KT M04/M07 A3015 RMK A01 T10361067  RH  079%=      5-min Rain = 0
KSP2 171318Z 32004KT M04/M07 A3015 RMK A01 T10361068  RH  079%=      5-min Rain = 0
KSP2 171319Z 32004KT M04/M07 A3015 RMK A01 T10361068  RH  079%=      5-min Rain = 0
KSP2 171320Z 32004KT M04/M07 A3015 RMK A01 T10361068  RH  078%=      5-min Rain = 0
KSP2 171321Z 31003KT M04/M07 A3015 RMK A01 T10351067  RH  078%=      5-min Rain = 0
KSP2 171322Z 31003KT M04/M07 A3015 RMK A01 T10351067  RH  078%=      5-min Rain = 0
KSP2 171323Z 31002KT M03/M07 A3015 RMK A01 T10341067  RH  078%=      5-min Rain = 0
KSP2 171324Z 29002KT M03/M07 A3015 RMK A01 T10341067  RH  078%=      5-min Rain = 0
KSP2 171325Z 29001KT M04/M07 A3015 RMK A01 T10351068  RH  078%=      5-min Rain = 0
KSP2 171326Z 29002KT M04/M07 A3015 RMK A01 T10361068  RH  078%=      5-min Rain = 0
KSP2 171327Z 29002KT M04/M07 A3015 RMK A01 T10361068  RH  079%=      5-min Rain = 0
KSP2 171328Z 29002KT M04/M07 A3015 RMK A01 T10361067  RH  079%=      5-min Rain = 0
KSP2 171329Z 28002KT M04/M07 A3015 RMK A01 T10371067  RH  079%=      5-min Rain = 0
KSP2 171330Z 29002KT M04/M07 A3015 RMK A01 T10371068  RH  079%=      5-min Rain = 0
KSP2 171331Z 31002KT M04/M07 A3015 RMK A01 T10371068  RH  079%=      5-min Rain = 0
KSP2 171332Z 31002KT M04/M07 A3015 RMK A01 T10381069  RH  079%=      5-min Rain = 0
KSP2 171333Z 33002KT M04/M07 A3015 RMK A01 T10391069  RH  079%=      5-min Rain = 0
KSP2 171334Z 32002KT M04/M07 A3015 RMK A01 T10391069  RH  080%=      5-min Rain = 0
KSP2 171335Z 33002KT M04/M07 A3015 RMK A01 T10401070  RH  080%=      5-min Rain = 0
KSP2 171336Z 31002KT M04/M07 A3015 RMK A01 T10401070  RH  080%=      5-min Rain = 0
KSP2 171337Z 32002KT M04/M07 A3015 RMK A01 T10411070  RH  080%=      5-min Rain = 0
KSP2 171338Z 32001KT M04/M07 A3015 RMK A01 T10401069  RH  081%=      5-min Rain = 0
KSP2 171339Z 32002KT M04/M07 A3015 RMK A01 T10411069  RH  081%=      5-min Rain = 0
KSP2 171340Z 32002KT M04/M07 A3015 RMK A01 T10411069  RH  081%=      5-min Rain = 0
KSP2 171341Z 32003KT M04/M07 A3016 RMK A01 T10411069  RH  081%=      5-min Rain = 0
KSP2 171342Z 30001KT M04/M07 A3016 RMK A01 T10411069  RH  081%=      5-min Rain = 0
KSP2 171343Z 32001KT M04/M07 A3016 RMK A01 T10411069  RH  081%=      5-min Rain = 0
KSP2 171344Z 30001KT M04/M07 A3016 RMK A01 T10411069  RH  081%=      5-min Rain = 0
KSP2 171345Z 27000KT M04/M07 A3016 RMK A01 T10411069  RH  081%=      5-min Rain = 0
KSP2 171346Z 18000KT M04/M07 A3016 RMK A01 T10401068  RH  081%=      5-min Rain = 0
KSP2 171347Z 24001KT M04/M07 A3016 RMK A01 T10391068  RH  080%=      5-min Rain = 0
KSP2 171348Z 30000KT M04/M07 A3016 RMK A01 T10391068  RH  080%=      5-min Rain = 0
KSP2 171349Z 30001KT M04/M07 A3016 RMK A01 T10381067  RH  081%=      5-min Rain = 0
KSP2 171350Z 29001KT M04/M07 A3016 RMK A01 T10371066  RH  080%=      5-min Rain = 0
KSP2 171351Z 29002KT M04/M07 A3016 RMK A01 T10361066  RH  080%=      5-min Rain = 0
KSP2 171352Z 30003KT M04/M07 A3016 RMK A01 T10361067  RH  079%=      5-min Rain = 0
KSP2 171353Z 31003KT M04/M07 A3016 RMK A01 T10361067  RH  079%=      5-min Rain = 0
KSP2 171354Z 30002KT M04/M07 A3016 RMK A01 T10361068  RH  078%=      5-min Rain = 0
KSP2 171355Z 30002KT M04/M07 A3016 RMK A01 T10361068  RH  078%=      5-min Rain = 0
KSP2 171356Z 27001KT M04/M07 A3016 RMK A01 T10361068  RH  079%=      5-min Rain = 0
KSP2 171357Z 30001KT M04/M07 A3016 RMK A01 T10361068  RH  079%=      5-min Rain = 0
KSP2 171358Z 30002KT M04/M07 A3016 RMK A01 T10371068  RH  079%=      5-min Rain = 0
KSP2 171359Z 29002KT M04/M07 A3016 RMK A01 T10371069  RH  079%=      5-min Rain = 0
KSP2 171400Z 29002KT M04/M07 A3016 RMK A01 T10371069  RH  079%=      5-min Rain = 0
KSP2 171401Z 31001KT M04/M07 A3016 RMK A01 T10371068  RH  079%=      5-min Rain = 0
KSP2 171402Z 31003KT M04/M07 A3016 RMK A01 T10371068  RH  079%=      5-min Rain = 0
KSP2 171403Z 31002KT M04/M07 A3016 RMK A01 T10371068  RH  079%=      5-min Rain = 0
KSP2 171404Z 30002KT M04/M07 A3017 RMK A01 T10371068  RH  079%=      5-min Rain = 0
KSP2 171405Z 31002KT M04/M07 A3017 RMK A01 T10381069  RH  079%=      5-min Rain = 0
KSP2 171406Z 31001KT M04/M07 A3017 RMK A01 T10381069  RH  079%=      5-min Rain = 0
KSP2 171407Z 31001KT M04/M07 A3017 RMK A01 T10381069  RH  079%=      5-min Rain = 0
KSP2 171408Z 29001KT M04/M07 A3017 RMK A01 T10391069  RH  079%=      5-min Rain = 0
KSP2 171409Z 29002KT M04/M07 A3017 RMK A01 T10391069  RH  080%=      5-min Rain = 0
KSP2 171410Z 27001KT M04/M07 A3017 RMK A01 T10391068  RH  080%=      5-min Rain = 0
KSP2 171411Z 28002KT M04/M07 A3016 RMK A01 T10391068  RH  080%=      5-min Rain = 0
KSP2 171412Z 29002KT M04/M07 A3016 RMK A01 T10391068  RH  080%=      5-min Rain = 0
KSP2 171413Z 30002KT M04/M07 A3016 RMK A01 T10391068  RH  080%=      5-min Rain = 0
KSP2 171414Z 31003KT M04/M07 A3016 RMK A01 T10381068  RH  080%=      5-min Rain = 0
KSP2 171415Z 31002KT M04/M07 A3016 RMK A01 T10381068  RH  080%=      5-min Rain = 0
KSP2 171416Z 31002KT M04/M07 A3016 RMK A01 T10381068  RH  080%=      5-min Rain = 0
KSP2 171417Z 31003KT M04/M07 A3016 RMK A01 T10381068  RH  080%=      5-min Rain = 0
KSP2 171418Z 31003KT M04/M07 A3016 RMK A01 T10391068  RH  080%=      5-min Rain = 0
KSP2 171419Z 31002KT M04/M07 A3016 RMK A01 T10391068  RH  080%=      5-min Rain = 0
KSP2 171420Z 31003KT M04/M07 A3016 RMK A01 T10391068  RH  080%=      5-min Rain = 0
KSP2 171421Z 31003KT M04/M07 A3016 RMK A01 T10391068  RH  080%=      5-min Rain = 0
KSP2 171422Z 31003KT M04/M07 A3016 RMK A01 T10391067  RH  080%=      5-min Rain = 0
KSP2 171423Z 31002KT M04/M07 A3016 RMK A01 T10391068  RH  080%=      5-min Rain = 0
KSP2 171424Z 31002KT M04/M07 A3016 RMK A01 T10381067  RH  081%=      5-min Rain = 0
KSP2 171425Z 30002KT M04/M07 A3016 RMK A01 T10371066  RH  081%=      5-min Rain = 0
KSP2 171426Z 31002KT M04/M07 A3016 RMK A01 T10371066  RH  080%=      5-min Rain = 0
KSP2 171427Z 30001KT M04/M07 A3016 RMK A01 T10371066  RH  080%=      5-min Rain = 0
KSP2 171428Z 29000KT M04/M07 A3016 RMK A01 T10371066  RH  080%=      5-min Rain = 0
KSP2 171429Z 31000KT M04/M07 A3016 RMK A01 T10371066  RH  080%=      5-min Rain = 0
KSP2 171430Z 32001KT M04/M07 A3017 RMK A01 T10371066  RH  080%=      5-min Rain = 0
KSP2 171431Z 31001KT M04/M07 A3017 RMK A01 T10371066  RH  080%=      5-min Rain = 0
KSP2 171432Z 30001KT M04/M07 A3017 RMK A01 T10361065  RH  080%=      5-min Rain = 0
KSP2 171433Z 28001KT M04/M07 A3017 RMK A01 T10361065  RH  080%=      5-min Rain = 0
KSP2 171434Z 25001KT M04/M06 A3017 RMK A01 T10351064  RH  080%=      5-min Rain = 0
KSP2 171435Z 27001KT M04/M06 A3017 RMK A01 T10351064  RH  081%=      5-min Rain = 0
KSP2 171436Z 22001KT M04/M06 A3017 RMK A01 T10351063  RH  081%=      5-min Rain = 0
KSP2 171437Z 29001KT M03/M06 A3016 RMK A01 T10341062  RH  081%=      5-min Rain = 0
KSP2 171438Z 29002KT M03/M06 A3016 RMK A01 T10321061  RH  080%=      5-min Rain = 0
KSP2 171439Z 31002KT M03/M06 A3016 RMK A01 T10301060  RH  080%=      5-min Rain = 0
KSP2 171440Z 30002KT M03/M06 A3016 RMK A01 T10281060  RH  078%=      5-min Rain = 0
KSP2 171441Z 30002KT M03/M06 A3016 RMK A01 T10261060  RH  078%=      5-min Rain = 0
KSP2 171442Z 32003KT M03/M06 A3016 RMK A01 T10251060  RH  077%=      5-min Rain = 0
KSP2 171443Z 31003KT M03/M06 A3017 RMK A01 T10251060  RH  077%=      5-min Rain = 0
KSP2 171444Z 31004KT M03/M06 A3016 RMK A01 T10251060  RH  077%=      5-min Rain = 0
KSP2 171445Z 31003KT M03/M06 A3016 RMK A01 T10251060  RH  077%=      5-min Rain = 0
KSP2 171446Z 31003KT M02/M06 A3016 RMK A01 T10241059  RH  077%=      5-min Rain = 0
KSP2 171447Z 31002KT M02/M06 A3016 RMK A01 T10231059  RH  076%=      5-min Rain = 0
KSP2 171448Z 31002KT M02/M06 A3016 RMK A01 T10221059  RH  075%=      5-min Rain = 0
KSP2 171449Z 31002KT M02/M06 A3016 RMK A01 T10201058  RH  075%=      5-min Rain = 0
KSP2 171450Z 30003KT M02/M06 A3017 RMK A01 T10211058  RH  076%=      5-min Rain = 0
KSP2 171451Z 30003KT M02/M06 A3017 RMK A01 T10221058  RH  076%=      5-min Rain = 0
KSP2 171452Z 30002KT M02/M06 A3017 RMK A01 T10221058  RH  076%=      5-min Rain = 0
KSP2 171453Z 31003KT M02/M06 A3017 RMK A01 T10221056  RH  078%=      5-min Rain = 0
KSP2 171454Z 31003KT M02/M06 A3017 RMK A01 T10211055  RH  078%=      5-min Rain = 0
KSP2 171455Z 30002KT M02/M05 A3017 RMK A01 T10211053  RH  079%=      5-min Rain = 0
KSP2 171456Z 31002KT M02/M05 A3017 RMK A01 T10211052  RH  080%=      5-min Rain = 0
KSP2 171457Z 27002KT M02/M05 A3017 RMK A01 T10211052  RH  080%=      5-min Rain = 0
KSP2 171458Z 28001KT M02/M05 A3017 RMK A01 T10211051  RH  080%=      5-min Rain = 0
KSP2 171459Z 27001KT M02/M05 A3017 RMK A01 T10201050  RH  080%=      5-min Rain = 0
KSP2 171500Z 29002KT M02/M05 A3017 RMK A01 T10201051  RH  079%=      5-min Rain = 0
KSP2 171501Z 29002KT M02/M05 A3017 RMK A01 T10191050  RH  079%=      5-min Rain = 0
KSP2 171502Z 30002KT M02/M05 A3017 RMK A01 T10181048  RH  080%=      5-min Rain = 0
KSP2 171503Z 30002KT M02/M05 A3017 RMK A01 T10181047  RH  081%=      5-min Rain = 0
KSP2 171504Z 30002KT M02/M05 A3017 RMK A01 T10171046  RH  080%=      5-min Rain = 0
KSP2 171505Z 30002KT M02/M05 A3018 RMK A01 T10161046  RH  080%=      5-min Rain = 0
KSP2 171506Z 30002KT M02/M05 A3018 RMK A01 T10151047  RH  079%=      5-min Rain = 0
KSP2 171507Z 31003KT M01/M05 A3018 RMK A01 T10141046  RH  079%=      5-min Rain = 0
KSP2 171508Z 30002KT M01/M05 A3018 RMK A01 T10141046  RH  079%=      5-min Rain = 0
KSP2 171509Z 31002KT M01/M05 A3018 RMK A01 T10131045  RH  079%=      5-min Rain = 0
KSP2 171510Z 28002KT M01/M05 A3019 RMK A01 T10131046  RH  078%=      5-min Rain = 0
KSP2 171511Z 27002KT M01/M05 A3019 RMK A01 T10131046  RH  078%=      5-min Rain = 0
KSP2 171512Z 25002KT M01/M05 A3019 RMK A01 T10131046  RH  078%=      5-min Rain = 0
KSP2 171513Z 24001KT M01/M05 A3019 RMK A01 T10131046  RH  078%=      5-min Rain = 0
KSP2 171514Z 23001KT M01/M05 A3019 RMK A01 T10131045  RH  079%=      5-min Rain = 0
KSP2 171515Z 25001KT M01/M05 A3019 RMK A01 T10121045  RH  078%=      5-min Rain = 0
KSP2 171516Z 26001KT M01/M05 A3019 RMK A01 T10121045  RH  078%=      5-min Rain = 0
KSP2 171517Z 25001KT M01/M04 A3019 RMK A01 T10111044  RH  078%=      5-min Rain = 0
KSP2 171518Z 23001KT M01/M04 A3019 RMK A01 T10091043  RH  078%=      5-min Rain = 0
KSP2 171519Z 23000KT M01/M04 A3019 RMK A01 T10081041  RH  078%=      5-min Rain = 0
KSP2 171520Z 19001KT M01/M04 A3019 RMK A01 T10051039  RH  078%=      5-min Rain = 0
KSP2 171521Z 23001KT M00/M04 A3019 RMK A01 T10021038  RH  077%=      5-min Rain = 0
KSP2 171522Z 25001KT 00/04 A3019 RMK A01 T00-00-38  RH  076%=      5-min Rain = 0
KSP2 171523Z 22000KT 00/M04 A3019 RMK A01 T00021038  RH  075%=      5-min Rain = 0
KSP2 171524Z 28000KT 00/M04 A3019 RMK A01 T00041039  RH  073%=      5-min Rain = 0
KSP2 171525Z 30000KT 00/M04 A3019 RMK A01 T00041042  RH  071%=      5-min Rain = 0
KSP2 171526Z 00000KT 01/M04 A3019 RMK A01 T00051040  RH  072%=      5-min Rain = 0
KSP2 171527Z 27000KT 01/M04 A3019 RMK A01 T00071039  RH  071%=      5-min Rain = 0
KSP2 171528Z 20000KT 01/M04 A3019 RMK A01 T00081040  RH  070%=      5-min Rain = 0
KSP2 171529Z 00000KT 01/M04 A3019 RMK A01 T00101040  RH  070%=      5-min Rain = 0
KSP2 171530Z 32000KT 01/M04 A3018 RMK A01 T00111039  RH  069%=      5-min Rain = 0
KSP2 171531Z 32000KT 01/M04 A3018 RMK A01 T00121038  RH  069%=      5-min Rain = 0
KSP2 171532Z 03000KT 01/M04 A3018 RMK A01 T00131038  RH  069%=      5-min Rain = 0
KSP2 171533Z 03000KT 01/M04 A3018 RMK A01 T00131038  RH  069%=      5-min Rain = 0
KSP2 171534Z 13000KT 01/M04 A3018 RMK A01 T00131037  RH  069%=      5-min Rain = 0
KSP2 171535Z 08000KT 02/M04 A3018 RMK A01 T00151035  RH  069%=      5-min Rain = 0
KSP2 171536Z 06000KT 02/M04 A3018 RMK A01 T00181036  RH  067%=      5-min Rain = 0
KSP2 171537Z 07000KT 02/M03 A3018 RMK A01 T00211034  RH  067%=      5-min Rain = 0
KSP2 171538Z 02001KT 02/M03 A3018 RMK A01 T00241033  RH  066%=      5-min Rain = 0
KSP2 171539Z 00000KT 03/M03 A3018 RMK A01 T00261031  RH  066%=      5-min Rain = 0
KSP2 171540Z 36002KT 03/M03 A3018 RMK A01 T00281032  RH  065%=      5-min Rain = 0
KSP2 171541Z 35001KT 03/M03 A3018 RMK A01 T00301033  RH  063%=      5-min Rain = 0
KSP2 171542Z 35002KT 03/M04 A3018 RMK A01 T00331035  RH  061%=      5-min Rain = 0
KSP2 171543Z 36001KT 04/M03 A3018 RMK A01 T00351034  RH  061%=      5-min Rain = 0
KSP2 171544Z 36002KT 04/M04 A3018 RMK A01 T00361037  RH  059%=      5-min Rain = 0
KSP2 171545Z 36002KT 04/M04 A3018 RMK A01 T00371038  RH  058%=      5-min Rain = 0
KSP2 171546Z 36001KT 04/M04 A3019 RMK A01 T00391035  RH  059%=      5-min Rain = 0
KSP2 171547Z 36001KT 04/M04 A3019 RMK A01 T00401037  RH  058%=      5-min Rain = 0
KSP2 171548Z 36002KT 04/M04 A3019 RMK A01 T00401035  RH  058%=      5-min Rain = 0
KSP2 171549Z 35002KT 04/M04 A3019 RMK A01 T00421037  RH  057%=      5-min Rain = 0
KSP2 171550Z 36002KT 04/M03 A3019 RMK A01 T00431034  RH  057%=      5-min Rain = 0
KSP2 171551Z 35002KT 05/M03 A3019 RMK A01 T00461033  RH  057%=      5-min Rain = 0
KSP2 171552Z 35002KT 05/M04 A3019 RMK A01 T00461035  RH  055%=      5-min Rain = 0
KSP2 171553Z 34003KT 05/M04 A3019 RMK A01 T00471040  RH  053%=      5-min Rain = 0
KSP2 171554Z 34004KT 05/M04 A3019 RMK A01 T00461038  RH  054%=      5-min Rain = 0
KSP2 171555Z 34004KT 05/M04 A3019 RMK A01 T00471038  RH  054%=      5-min Rain = 0
KSP2 171556Z 34005KT 05/M03 A3019 RMK A01 T00501034  RH  055%=      5-min Rain = 0
KSP2 171557Z 35005KT 05/M04 A3019 RMK A01 T00521038  RH  052%=      5-min Rain = 0
KSP2 171558Z 36006KT 05/M04 A302 RMK A01 T00531039  RH  052%=      5-min Rain = 0
KSP2 171559Z 01006KT 05/M05 A302 RMK A01 T00531045  RH  049%=      5-min Rain = 0
KSP2 171600Z 00005KT 05/M05 A302 RMK A01 T00531047  RH  048%=      5-min Rain = 0
KSP2 171601Z 01007KT 05/M05 A302 RMK A01 T00531047  RH  048%=      5-min Rain = 0
KSP2 171602Z 01007KT 05/M05 A302 RMK A01 T00531049  RH  048%=      5-min Rain = 0
KSP2 171603Z 36006KT 05/M05 A302 RMK A01 T00541047  RH  048%=      5-min Rain = 0
KSP2 171604Z 35007KT 05/M05 A302 RMK A01 T00541048  RH  048%=      5-min Rain = 0
KSP2 171605Z 36007KT 05/M05 A302 RMK A01 T00541052  RH  046%=      5-min Rain = 0
KSP2 171606Z 36007KT 06/M05 A302 RMK A01 T00551053  RH  046%=      5-min Rain = 0
KSP2 171607Z 00005KT 05/M05 A302 RMK A01 T00541052  RH  046%=      5-min Rain = 0
KSP2 171608Z 00008KT 06/M05 A302 RMK A01 T00561050  RH  047%=      5-min Rain = 0
KSP2 171609Z 36007KT 06/M05 A302 RMK A01 T00571051  RH  046%=      5-min Rain = 0
KSP2 171610Z 01009KT 06/M05 A302 RMK A01 T00571052  RH  045%=      5-min Rain = 0
KSP2 171611Z 01008KT 06/M05 A302 RMK A01 T00581052  RH  045%=      5-min Rain = 0
KSP2 171612Z 01006KT 06/M05 A302 RMK A01 T00581052  RH  045%=      5-min Rain = 0
KSP2 171613Z 00007KT 06/M05 A3021 RMK A01 T00571051  RH  046%=      5-min Rain = 0
KSP2 171614Z 00008KT 06/M05 A3021 RMK A01 T00591052  RH  045%=      5-min Rain = 0
KSP2 171615Z 36010KT 06/M05 A3021 RMK A01 T00591054  RH  044%=      5-min Rain = 0
KSP2 171616Z 36010KT 06/M06 A3021 RMK A01 T00571056  RH  044%=      5-min Rain = 0
KSP2 171617Z 36009KT 06/M06 A302 RMK A01 T00571055  RH  044%=      5-min Rain = 0
KSP2 171618Z 36009KT 06/M06 A302 RMK A01 T00571055  RH  044%=      5-min Rain = 0
KSP2 171619Z 01009KT 06/M06 A302 RMK A01 T00571056  RH  044%=      5-min Rain = 0
KSP2 171620Z 01006KT 06/M06 A302 RMK A01 T00571057  RH  044%=      5-min Rain = 0
KSP2 171621Z 00008KT 06/M05 A302 RMK A01 T00581054  RH  045%=      5-min Rain = 0
KSP2 171622Z 36007KT 06/M06 A302 RMK A01 T00591055  RH  044%=      5-min Rain = 0
KSP2 171623Z 36009KT 06/M05 A302 RMK A01 T00601052  RH  045%=      5-min Rain = 0
KSP2 171624Z 01011KT 06/M05 A302 RMK A01 T00611052  RH  044%=      5-min Rain = 0
KSP2 171625Z 01009KT 06/M05 A302 RMK A01 T00611054  RH  043%=      5-min Rain = 0
KSP2 171626Z 02009KT 06/M06 A302 RMK A01 T00611056  RH  043%=      5-min Rain = 0
KSP2 171627Z 02008KT 06/M05 A302 RMK A01 T00631051  RH  044%=      5-min Rain = 0
KSP2 171628Z 01007KT 07/M05 A302 RMK A01 T00651051  RH  043%=      5-min Rain = 0
KSP2 171629Z 01008KT 07/M05 A302 RMK A01 T00671050  RH  043%=      5-min Rain = 0
KSP2 171630Z 02006KT 07/M05 A302 RMK A01 T00671053  RH  042%=      5-min Rain = 0
KSP2 171631Z 01007KT 07/M05 A302 RMK A01 T00661052  RH  043%=      5-min Rain = 0
KSP2 171632Z 01007KT 07/M05 A302 RMK A01 T00671052  RH  042%=      5-min Rain = 0
KSP2 171633Z 02008KT 07/M05 A302 RMK A01 T00671053  RH  042%=      5-min Rain = 0
KSP2 171634Z 02007KT 07/M06 A302 RMK A01 T00671055  RH  041%=      5-min Rain = 0
KSP2 171635Z 02007KT 07/M05 A302 RMK A01 T00661054  RH  042%=      5-min Rain = 0
KSP2 171636Z 02006KT 07/M05 A302 RMK A01 T00671054  RH  042%=      5-min Rain = 0
KSP2 171637Z 00009KT 07/M05 A302 RMK A01 T00681052  RH  042%=      5-min Rain = 0
KSP2 171638Z 36009KT 07/M05 A302 RMK A01 T00691054  RH  041%=      5-min Rain = 0
KSP2 171639Z 01009KT 07/M05 A302 RMK A01 T00691053  RH  042%=      5-min Rain = 0
KSP2 171640Z 01010KT 07/M06 A302 RMK A01 T00691055  RH  041%=      5-min Rain = 0
KSP2 171641Z 01009KT 07/M06 A302 RMK A01 T00681057  RH  041%=      5-min Rain = 0
KSP2 171642Z 01009KT 07/M06 A302 RMK A01 T00661057  RH  041%=      5-min Rain = 0
KSP2 171643Z 02006KT 07/M06 A302 RMK A01 T00651058  RH  041%=      5-min Rain = 0
KSP2 171644Z 03008KT 07/M05 A302 RMK A01 T00661054  RH  042%=      5-min Rain = 0
KSP2 171645Z 02007KT 07/M06 A302 RMK A01 T00671057  RH  041%=      5-min Rain = 0
KSP2 171646Z 02008KT 07/M06 A302 RMK A01 T00661056  RH  041%=      5-min Rain = 0
KSP2 171647Z 02008KT 07/M06 A302 RMK A01 T00671056  RH  041%=      5-min Rain = 0
KSP2 171648Z 02007KT 07/M05 A302 RMK A01 T00691054  RH  041%=      5-min Rain = 0
KSP2 171649Z 01009KT 07/M06 A302 RMK A01 T00701055  RH  041%=      5-min Rain = 0
KSP2 171650Z 02009KT 07/M06 A302 RMK A01 T00701056  RH  040%=      5-min Rain = 0
KSP2 171651Z 02008KT 07/M06 A302 RMK A01 T00691056  RH  040%=      5-min Rain = 0
KSP2 171652Z 02008KT 07/M06 A302 RMK A01 T00701056  RH  040%=      5-min Rain = 0
KSP2 171653Z 02009KT 07/M06 A302 RMK A01 T00701057  RH  040%=      5-min Rain = 0
KSP2 171654Z 01009KT 07/M06 A302 RMK A01 T00701057  RH  040%=      5-min Rain = 0
KSP2 171655Z 01007KT 07/M06 A302 RMK A01 T00701055  RH  040%=      5-min Rain = 0
KSP2 171656Z 02007KT 07/M06 A302 RMK A01 T00701057  RH  040%=      5-min Rain = 0
KSP2 171657Z 00007KT 07/M06 A302 RMK A01 T00711055  RH  040%=      5-min Rain = 0
KSP2 171658Z 01007KT 07/M05 A302 RMK A01 T00741053  RH  040%=      5-min Rain = 0
KSP2 171659Z 00009KT 07/M06 A3019 RMK A01 T00741057  RH  039%=      5-min Rain = 0
KSP2 171700Z 01007KT 07/M06 A3019 RMK A01 T00731058  RH  039%=      5-min Rain = 0
KSP2 171701Z 01007KT 07/M06 A3019 RMK A01 T00721058  RH  039%=      5-min Rain = 0
KSP2 171702Z 02008KT 07/M06 A302 RMK A01 T00721058  RH  039%=      5-min Rain = 0
KSP2 171703Z 02007KT 07/M06 A302 RMK A01 T00721058  RH  039%=      5-min Rain = 0
KSP2 171704Z 02007KT 07/M06 A302 RMK A01 T00731057  RH  039%=      5-min Rain = 0
KSP2 171705Z 02007KT 08/M06 A302 RMK A01 T00751057  RH  039%=      5-min Rain = 0
KSP2 171706Z 03007KT 08/M06 A302 RMK A01 T00761058  RH  038%=      5-min Rain = 0
KSP2 171707Z 02008KT 07/M06 A302 RMK A01 T00741059  RH  038%=      5-min Rain = 0
KSP2 171708Z 03006KT 07/M06 A302 RMK A01 T00731060  RH  038%=      5-min Rain = 0
KSP2 171709Z 04007KT 07/M06 A302 RMK A01 T00731059  RH  038%=      5-min Rain = 0
KSP2 171710Z 04007KT 07/M06 A302 RMK A01 T00731058  RH  039%=      5-min Rain = 0
KSP2 171711Z 03005KT 08/M05 A302 RMK A01 T00751054  RH  039%=      5-min Rain = 0
KSP2 171712Z 02008KT 08/M05 A302 RMK A01 T00781054  RH  039%=      5-min Rain = 0
KSP2 171713Z 01008KT 08/M06 A302 RMK A01 T00791057  RH  038%=      5-min Rain = 0
KSP2 171714Z 02007KT 08/M06 A302 RMK A01 T00801056  RH  038%=      5-min Rain = 0
KSP2 171715Z 03005KT 08/M06 A302 RMK A01 T00801056  RH  038%=      5-min Rain = 0
KSP2 171716Z 03005KT 08/M06 A302 RMK A01 T00811056  RH  038%=      5-min Rain = 0
KSP2 171717Z 01007KT 08/M06 A302 RMK A01 T00811055  RH  038%=      5-min Rain = 0
KSP2 171718Z 01008KT 08/M06 A302 RMK A01 T00801057  RH  037%=      5-min Rain = 0
KSP2 171719Z 01009KT 08/M06 A302 RMK A01 T00791057  RH  037%=      5-min Rain = 0
KSP2 171720Z 01006KT 08/M06 A302 RMK A01 T00781058  RH  037%=      5-min Rain = 0
KSP2 171721Z 03004KT 08/M06 A302 RMK A01 T00791055  RH  038%=      5-min Rain = 0
KSP2 171722Z 02007KT 08/M05 A302 RMK A01 T00811054  RH  038%=      5-min Rain = 0
KSP2 171723Z 01008KT 08/M06 A302 RMK A01 T00811057  RH  037%=      5-min Rain = 0
KSP2 171724Z 01010KT 08/M06 A302 RMK A01 T00801057  RH  037%=      5-min Rain = 0
KSP2 171725Z 01010KT 08/M06 A302 RMK A01 T00791057  RH  037%=      5-min Rain = 0
KSP2 171726Z 01007KT 08/M06 A302 RMK A01 T00791058  RH  037%=      5-min Rain = 0
KSP2 171727Z 02006KT 08/M06 A302 RMK A01 T00801055  RH  038%=      5-min Rain = 0
KSP2 171728Z 01005KT 08/M05 A302 RMK A01 T00821052  RH  038%=      5-min Rain = 0
KSP2 171729Z 01007KT 09/M05 A302 RMK A01 T00851053  RH  037%=      5-min Rain = 0
KSP2 171730Z 00005KT 09/M05 A302 RMK A01 T00871051  RH  037%=      5-min Rain = 0
KSP2 171731Z 02007KT 09/M05 A3019 RMK A01 T00891051  RH  037%=      5-min Rain = 0
KSP2 171732Z 03007KT 09/M05 A3019 RMK A01 T00911053  RH  036%=      5-min Rain = 0
KSP2 171733Z 02005KT 09/M06 A3019 RMK A01 T00861059  RH  035%=      5-min Rain = 0
KSP2 171734Z 02007KT 08/M06 A3019 RMK A01 T00831057  RH  037%=      5-min Rain = 0
KSP2 171735Z 00008KT 08/M06 A3019 RMK A01 T00831058  RH  036%=      5-min Rain = 0
KSP2 171736Z 02009KT 08/M06 A3019 RMK A01 T00831057  RH  036%=      5-min Rain = 0
KSP2 171737Z 00008KT 08/M06 A3019 RMK A01 T00841057  RH  036%=      5-min Rain = 0
KSP2 171738Z 01007KT 09/M06 A3019 RMK A01 T00851059  RH  036%=      5-min Rain = 0
KSP2 171739Z 01008KT 09/M06 A3019 RMK A01 T00851060  RH  035%=      5-min Rain = 0
KSP2 171740Z 36008KT 08/M06 A3019 RMK A01 T00841060  RH  036%=      5-min Rain = 0
KSP2 171741Z 36008KT 08/M06 A3019 RMK A01 T00841060  RH  035%=      5-min Rain = 0
KSP2 171742Z 00008KT 08/M06 A3019 RMK A01 T00831062  RH  035%=      5-min Rain = 0
KSP2 171743Z 00008KT 08/M06 A3019 RMK A01 T00841058  RH  036%=      5-min Rain = 0
KSP2 171744Z 36009KT 09/M06 A3019 RMK A01 T00861059  RH  035%=      5-min Rain = 0
KSP2 171745Z 00007KT 09/M06 A3019 RMK A01 T00861059  RH  035%=      5-min Rain = 0
KSP2 171746Z 02008KT 09/M06 A3019 RMK A01 T00861058  RH  035%=      5-min Rain = 0
KSP2 171747Z 03006KT 09/M06 A3019 RMK A01 T00871060  RH  035%=      5-min Rain = 0
KSP2 171748Z 04004KT 09/M06 A3019 RMK A01 T00851061  RH  035%=      5-min Rain = 0
KSP2 171749Z 04005KT 09/M06 A3019 RMK A01 T00851059  RH  035%=      5-min Rain = 0
KSP2 171750Z 02005KT 09/M06 A3019 RMK A01 T00871058  RH  035%=      5-min Rain = 0
KSP2 171751Z 35007KT 09/M06 A3019 RMK A01 T00891057  RH  035%=      5-min Rain = 0
KSP2 171752Z 00007KT 09/M06 A3019 RMK A01 T00911059  RH  034%=      5-min Rain = 0
KSP2 171753Z 01006KT 09/M06 A3019 RMK A01 T00921059  RH  034%=      5-min Rain = 0
KSP2 171754Z 00006KT 09/M06 A3018 RMK A01 T00901062  RH  033%=      5-min Rain = 0
KSP2 171755Z 00005KT 09/M06 A3018 RMK A01 T00871063  RH  034%=      5-min Rain = 0
KSP2 171756Z 02006KT 09/M06 A3018 RMK A01 T00881059  RH  035%=      5-min Rain = 0
KSP2 171757Z 02007KT 09/M06 A3018 RMK A01 T00901061  RH  034%=      5-min Rain = 0
KSP2 171758Z 01005KT 09/M06 A3018 RMK A01 T00901063  RH  033%=      5-min Rain = 0
KSP2 171759Z 03005KT 09/M06 A3018 RMK A01 T00901064  RH  033%=      5-min Rain = 0
KSP2 171800Z 02006KT 09/M06 A3018 RMK A01 T00891063  RH  034%=      5-min Rain = 0
KSP2 171801Z 04004KT 09/M07 A3018 RMK A01 T00901065  RH  033%=      5-min Rain = 0
KSP2 171802Z 02007KT 09/M06 A3018 RMK A01 T00901064  RH  033%=      5-min Rain = 0
KSP2 171803Z 00005KT 09/M07 A3017 RMK A01 T00901066  RH  033%=      5-min Rain = 0
KSP2 171804Z 35006KT 09/M07 A3017 RMK A01 T00901066  RH  033%=      5-min Rain = 0
KSP2 171805Z 33004KT 09/M07 A3017 RMK A01 T00901066  RH  033%=      5-min Rain = 0
KSP2 171806Z 33005KT 09/M07 A3017 RMK A01 T00901067  RH  032%=      5-min Rain = 0
KSP2 171807Z 33006KT 09/M07 A3017 RMK A01 T00891067  RH  033%=      5-min Rain = 0
KSP2 171808Z 34006KT 09/M07 A3017 RMK A01 T00891066  RH  033%=      5-min Rain = 0
KSP2 171809Z 35007KT 09/M07 A3016 RMK A01 T00911066  RH  033%=      5-min Rain = 0
KSP2 171810Z 34005KT 09/M07 A3016 RMK A01 T00891069  RH  032%=      5-min Rain = 0
KSP2 171811Z 33006KT 09/M07 A3016 RMK A01 T00881066  RH  033%=      5-min Rain = 0
KSP2 171812Z 32005KT 09/M07 A3016 RMK A01 T00891066  RH  033%=      5-min Rain = 0
KSP2 171813Z 32004KT 09/M07 A3016 RMK A01 T00911065  RH  033%=      5-min Rain = 0
KSP2 171814Z 33003KT 09/M07 A3016 RMK A01 T00921066  RH  032%=      5-min Rain = 0
KSP2 171815Z 34005KT 09/M07 A3016 RMK A01 T00921066  RH  032%=      5-min Rain = 0
KSP2 171816Z 34006KT 09/M07 A3016 RMK A01 T00921070  RH  031%=      5-min Rain = 0
KSP2 171817Z 01006KT 09/M07 A3016 RMK A01 T00911070  RH  031%=      5-min Rain = 0
KSP2 171818Z 00005KT 09/M07 A3015 RMK A01 T00911071  RH  031%=      5-min Rain = 0
KSP2 171819Z 34005KT 09/M07 A3015 RMK A01 T00901071  RH  031%=      5-min Rain = 0
KSP2 171820Z 33004KT 09/M07 A3015 RMK A01 T00911069  RH  031%=      5-min Rain = 0
KSP2 171821Z 04002KT 09/M07 A3015 RMK A01 T00931067  RH  032%=      5-min Rain = 0
KSP2 171822Z 04004KT 10/M07 A3015 RMK A01 T00971066  RH  031%=      5-min Rain = 0
KSP2 171823Z 05006KT 10/M07 A3015 RMK A01 T00961068  RH  031%=      5-min Rain = 0
KSP2 171824Z 05006KT 10/M07 A3015 RMK A01 T00961068  RH  031%=      5-min Rain = 0
KSP2 171825Z 07002KT 10/M07 A3015 RMK A01 T00951068  RH  031%=      5-min Rain = 0
KSP2 171826Z 06003KT 10/M07 A3015 RMK A01 T00961068  RH  031%=      5-min Rain = 0
KSP2 171827Z 04003KT 10/M07 A3015 RMK A01 T00971066  RH  031%=      5-min Rain = 0
KSP2 171828Z 02004KT 10/M07 A3015 RMK A01 T00991065  RH  031%=      5-min Rain = 0
KSP2 171829Z 03003KT 10/M07 A3015 RMK A01 T00991066  RH  031%=      5-min Rain = 0
KSP2 171830Z 35004KT 10/M07 A3015 RMK A01 T00981067  RH  031%=      5-min Rain = 0
KSP2 171831Z 33002KT 09/M07 A3015 RMK A01 T00941070  RH  031%=      5-min Rain = 0
KSP2 171832Z 00005KT 09/M07 A3014 RMK A01 T00921068  RH  032%=      5-min Rain = 0
KSP2 171833Z 36005KT 10/M07 A3014 RMK A01 T00951067  RH  031%=      5-min Rain = 0
KSP2 171834Z 34004KT 10/M07 A3014 RMK A01 T00961068  RH  031%=      5-min Rain = 0
KSP2 171835Z 35003KT 10/M07 A3014 RMK A01 T00971070  RH  030%=      5-min Rain = 0
KSP2 171836Z 35004KT 10/M07 A3014 RMK A01 T00951069  RH  031%=      5-min Rain = 0
KSP2 171837Z 05003KT 10/M07 A3014 RMK A01 T00951070  RH  030%=      5-min Rain = 0
KSP2 171838Z 08001KT 09/M07 A3014 RMK A01 T00941070  RH  031%=      5-min Rain = 0
KSP2 171839Z 05003KT 10/M07 A3014 RMK A01 T00951067  RH  031%=      5-min Rain = 0
KSP2 171840Z 03003KT 10/M07 A3014 RMK A01 T00981069  RH  030%=      5-min Rain = 0
KSP2 171841Z 04003KT 10/M07 A3014 RMK A01 T00981070  RH  030%=      5-min Rain = 0
KSP2 171842Z 01005KT 10/M07 A3014 RMK A01 T00981070  RH  030%=      5-min Rain = 0
KSP2 171843Z 00006KT 10/M07 A3014 RMK A01 T00971071  RH  030%=      5-min Rain = 0
KSP2 171844Z 00006KT 10/M07 A3014 RMK A01 T00961071  RH  030%=      5-min Rain = 0
KSP2 171845Z 36004KT 10/M07 A3014 RMK A01 T00961072  RH  030%=      5-min Rain = 0
KSP2 171846Z 35003KT 10/M07 A3014 RMK A01 T00961073  RH  030%=      5-min Rain = 0
KSP2 171847Z 35003KT 09/M07 A3014 RMK A01 T00941073  RH  030%=      5-min Rain = 0
KSP2 171848Z 34003KT 09/M07 A3014 RMK A01 T00941072  RH  030%=      5-min Rain = 0
KSP2 171849Z 35003KT 09/M07 A3014 RMK A01 T00921073  RH  030%=      5-min Rain = 0
KSP2 171850Z 33002KT 09/M07 A3014 RMK A01 T00911071  RH  031%=      5-min Rain = 0
KSP2 171851Z 28002KT 09/M07 A3014 RMK A01 T00921072  RH  031%=      5-min Rain = 0
KSP2 171852Z 26002KT 09/M07 A3014 RMK A01 T00911074  RH  030%=      5-min Rain = 0
KSP2 171853Z 31004KT 09/M07 A3014 RMK A01 T00921071  RH  031%=      5-min Rain = 0
KSP2 171854Z 04005KT 10/M07 A3014 RMK A01 T00961069  RH  031%=      5-min Rain = 0
KSP2 171855Z 03002KT 10/M07 A3014 RMK A01 T00991069  RH  030%=      5-min Rain = 0
KSP2 171856Z 03004KT 10/M07 A3014 RMK A01 T01001069  RH  030%=      5-min Rain = 0
KSP2 171857Z 03004KT 10/M07 A3013 RMK A01 T01021069  RH  029%=      5-min Rain = 0
KSP2 171858Z 02004KT 10/M07 A3013 RMK A01 T01021071  RH  029%=      5-min Rain = 0
KSP2 171859Z 01003KT 10/M07 A3013 RMK A01 T00991072  RH  029%=      5-min Rain = 0
KSP2 171900Z 02004KT 10/M07 A3013 RMK A01 T00991072  RH  029%=      5-min Rain = 0
KSP2 171901Z 04003KT 10/M07 A3013 RMK A01 T00971073  RH  029%=      5-min Rain = 0
KSP2 171902Z 06003KT 10/M07 A3013 RMK A01 T00961071  RH  030%=      5-min Rain = 0
KSP2 171903Z 08003KT 10/M07 A3013 RMK A01 T00971072  RH  030%=      5-min Rain = 0
KSP2 171904Z 09003KT 10/M07 A3013 RMK A01 T00971071  RH  030%=      5-min Rain = 0
KSP2 171905Z 04004KT 10/M07 A3013 RMK A01 T00971070  RH  030%=      5-min Rain = 0
KSP2 171906Z 04005KT 10/M07 A3012 RMK A01 T00991071  RH  029%=      5-min Rain = 0
KSP2 171907Z 05002KT 10/M08 A3012 RMK A01 T00961076  RH  029%=      5-min Rain = 0
KSP2 171908Z 09001KT 10/M07 A3012 RMK A01 T00951074  RH  030%=      5-min Rain = 0
KSP2 171909Z 31001KT 10/M07 A3012 RMK A01 T00951073  RH  030%=      5-min Rain = 0
KSP2 171910Z 00003KT 10/M07 A3012 RMK A01 T00961074  RH  029%=      5-min Rain = 0
KSP2 171911Z 04003KT 10/M07 A3012 RMK A01 T00961073  RH  030%=      5-min Rain = 0
KSP2 171912Z 06004KT 10/M07 A3012 RMK A01 T00971071  RH  030%=      5-min Rain = 0
KSP2 171913Z 06003KT 10/M07 A3012 RMK A01 T00981071  RH  030%=      5-min Rain = 0
KSP2 171914Z 04003KT 10/M07 A3012 RMK A01 T00991072  RH  029%=      5-min Rain = 0
KSP2 171915Z 01004KT 10/M07 A3012 RMK A01 T00991071  RH  029%=      5-min Rain = 0
KSP2 171916Z 01003KT 10/M07 A3012 RMK A01 T00991073  RH  029%=      5-min Rain = 0
KSP2 171917Z 02003KT 10/M07 A3012 RMK A01 T00991071  RH  029%=      5-min Rain = 0
KSP2 171918Z 00003KT 10/M07 A3012 RMK A01 T00991072  RH  029%=      5-min Rain = 0
KSP2 171919Z 05001KT 10/M07 A3012 RMK A01 T00981073  RH  029%=      5-min Rain = 0
KSP2 171920Z 06003KT 10/M07 A3012 RMK A01 T01001069  RH  030%=      5-min Rain = 0
KSP2 171921Z 08004KT 10/M07 A3012 RMK A01 T01031069  RH  029%=      5-min Rain = 0
KSP2 171922Z 09003KT 10/M07 A3012 RMK A01 T01011071  RH  029%=      5-min Rain = 0
KSP2 171923Z 10003KT 10/M07 A3012 RMK A01 T01011070  RH  029%=      5-min Rain = 0
KSP2 171924Z 12002KT 10/M07 A3012 RMK A01 T01001072  RH  029%=      5-min Rain = 0
KSP2 171925Z 08002KT 10/M07 A3012 RMK A01 T00991073  RH  029%=      5-min Rain = 0
KSP2 171926Z 10004KT 10/M07 A3012 RMK A01 T00991072  RH  029%=      5-min Rain = 0
KSP2 171927Z 09003KT 10/M07 A3012 RMK A01 T00991071  RH  029%=      5-min Rain = 0
KSP2 171928Z 07004KT 10/M07 A3012 RMK A01 T00991071  RH  030%=      5-min Rain = 0
KSP2 171929Z 06004KT 10/M07 A3012 RMK A01 T00991071  RH  029%=      5-min Rain = 0
KSP2 171930Z 08002KT 10/M07 A3012 RMK A01 T00981072  RH  029%=      5-min Rain = 0
KSP2 171931Z 09004KT 10/M07 A3012 RMK A01 T00971071  RH  030%=      5-min Rain = 0
KSP2 171932Z 08005KT 10/M07 A3012 RMK A01 T00991069  RH  030%=      5-min Rain = 0
KSP2 171933Z 12004KT 10/M07 A3012 RMK A01 T00991071  RH  029%=      5-min Rain = 0
KSP2 171934Z 09005KT 10/M07 A3011 RMK A01 T00991070  RH  030%=      5-min Rain = 0
KSP2 171935Z 10004KT 10/M07 A3011 RMK A01 T00991071  RH  029%=      5-min Rain = 0
KSP2 171936Z 09005KT 10/M07 A3011 RMK A01 T00991071  RH  030%=      5-min Rain = 0
KSP2 171937Z 10004KT 10/M07 A3011 RMK A01 T00971073  RH  029%=      5-min Rain = 0
KSP2 171938Z 12003KT 10/M07 A3011 RMK A01 T00961071  RH  030%=      5-min Rain = 0
KSP2 171939Z 11004KT 10/M07 A3011 RMK A01 T00981070  RH  030%=      5-min Rain = 0
KSP2 171940Z 12003KT 10/M07 A3011 RMK A01 T00991070  RH  030%=      5-min Rain = 0
KSP2 171941Z 11002KT 10/M07 A3011 RMK A01 T00991072  RH  029%=      5-min Rain = 0
KSP2 171942Z 11002KT 10/M07 A3011 RMK A01 T00991072  RH  029%=      5-min Rain = 0
KSP2 171943Z 10002KT 10/M07 A3011 RMK A01 T00991071  RH  030%=      5-min Rain = 0
KSP2 171944Z 09001KT 10/M07 A3011 RMK A01 T01001070  RH  030%=      5-min Rain = 0
KSP2 171945Z 17001KT 10/M07 A3011 RMK A01 T01021068  RH  030%=      5-min Rain = 0
KSP2 171946Z 15001KT 11/M07 A3012 RMK A01 T01051067  RH  029%=      5-min Rain = 0
KSP2 171947Z 36003KT 11/M07 A3011 RMK A01 T01081069  RH  028%=      5-min Rain = 0
KSP2 171948Z 34005KT 11/M07 A3011 RMK A01 T01091069  RH  028%=      5-min Rain = 0
KSP2 171949Z 33004KT 11/M07 A3011 RMK A01 T01071073  RH  028%=      5-min Rain = 0
KSP2 171950Z 34006KT 10/M07 A3011 RMK A01 T01041074  RH  028%=      5-min Rain = 0
KSP2 171951Z 33005KT 10/M07 A3012 RMK A01 T01031072  RH  028%=      5-min Rain = 0
KSP2 171952Z 30004KT 10/M07 A3012 RMK A01 T01021073  RH  029%=      5-min Rain = 0
KSP2 171953Z 29001KT 10/M07 A3012 RMK A01 T01011073  RH  029%=      5-min Rain = 0
KSP2 171954Z 28001KT 10/M07 A3011 RMK A01 T01011073  RH  029%=      5-min Rain = 0
KSP2 171955Z 28002KT 10/M07 A3011 RMK A01 T01021072  RH  029%=      5-min Rain = 0
KSP2 171956Z 33003KT 11/M07 A3011 RMK A01 T01051068  RH  029%=      5-min Rain = 0
KSP2 171957Z 33003KT 11/M07 A3011 RMK A01 T01081068  RH  028%=      5-min Rain = 0
KSP2 171958Z 36007KT 11/M07 A3011 RMK A01 T01091069  RH  028%=      5-min Rain = 0
KSP2 171959Z 00007KT 11/M07 A3011 RMK A01 T01101070  RH  028%=      5-min Rain = 0
KSP2 172000Z 35004KT 11/M07 A3011 RMK A01 T01071073  RH  028%=      5-min Rain = 0
KSP2 172001Z 32002KT 10/M07 A3011 RMK A01 T01041072  RH  028%=      5-min Rain = 0
KSP2 172002Z 36003KT 11/M07 A3011 RMK A01 T01051069  RH  029%=      5-min Rain = 0
KSP2 172003Z 01005KT 11/M07 A3011 RMK A01 T01081069  RH  028%=      5-min Rain = 0
KSP2 172004Z 35005KT 11/M07 A3011 RMK A01 T01111067  RH  028%=      5-min Rain = 0
KSP2 172005Z 02004KT 11/M07 A3011 RMK A01 T01131068  RH  027%=      5-min Rain = 0
KSP2 172006Z 03004KT 11/M07 A3011 RMK A01 T01111071  RH  027%=      5-min Rain = 0
KSP2 172007Z 02001KT 11/M07 A3011 RMK A01 T01081071  RH  028%=      5-min Rain = 0
KSP2 172008Z 36002KT 11/M07 A3011 RMK A01 T01071071  RH  028%=      5-min Rain = 0
KSP2 172009Z 05002KT 11/M07 A3011 RMK A01 T01071071  RH  028%=      5-min Rain = 0
KSP2 172010Z 04003KT 11/M07 A3011 RMK A01 T01061072  RH  028%=      5-min Rain = 0
KSP2 172011Z 06004KT 11/M07 A3011 RMK A01 T01061070  RH  028%=      5-min Rain = 0
KSP2 172012Z 06005KT 11/M07 A3011 RMK A01 T01051070  RH  028%=      5-min Rain = 0
KSP2 172013Z 05005KT 10/M07 A3011 RMK A01 T01041070  RH  029%=      5-min Rain = 0
KSP2 172014Z 04004KT 10/M07 A3011 RMK A01 T01031070  RH  029%=      5-min Rain = 0
KSP2 172015Z 06004KT 10/M07 A3011 RMK A01 T01031071  RH  029%=      5-min Rain = 0
KSP2 172016Z 05004KT 10/M07 A3011 RMK A01 T01011071  RH  029%=      5-min Rain = 0
KSP2 172017Z 02003KT 10/M07 A3011 RMK A01 T01011070  RH  029%=      5-min Rain = 0
KSP2 172018Z 03004KT 10/M07 A3011 RMK A01 T01031068  RH  029%=      5-min Rain = 0
KSP2 172019Z 34005KT 11/M07 A3011 RMK A01 T01051068  RH  029%=      5-min Rain = 0
KSP2 172020Z 34005KT 11/M07 A3011 RMK A01 T01061069  RH  028%=      5-min Rain = 0
KSP2 172021Z 32004KT 11/M07 A3011 RMK A01 T01051071  RH  028%=      5-min Rain = 0
KSP2 172022Z 31005KT 10/M07 A3011 RMK A01 T01041072  RH  028%=      5-min Rain = 0
KSP2 172023Z 35005KT 10/M07 A3011 RMK A01 T01041070  RH  029%=      5-min Rain = 0
KSP2 172024Z 35005KT 11/M07 A3011 RMK A01 T01051069  RH  029%=      5-min Rain = 0
KSP2 172025Z 04003KT 11/M07 A3011 RMK A01 T01051071  RH  028%=      5-min Rain = 0
KSP2 172026Z 36002KT 10/M07 A301 RMK A01 T01041070  RH  029%=      5-min Rain = 0
KSP2 172027Z 32005KT 11/M07 A3011 RMK A01 T01051068  RH  029%=      5-min Rain = 0
KSP2 172028Z 31005KT 11/M07 A301 RMK A01 T01061069  RH  028%=      5-min Rain = 0
KSP2 172029Z 30004KT 11/M07 A301 RMK A01 T01061070  RH  028%=      5-min Rain = 0
KSP2 172030Z 29004KT 11/M07 A301 RMK A01 T01061070  RH  028%=      5-min Rain = 0
KSP2 172031Z 29004KT 11/M07 A301 RMK A01 T01061069  RH  029%=      5-min Rain = 0
KSP2 172032Z 32004KT 11/M07 A301 RMK A01 T01061069  RH  028%=      5-min Rain = 0
KSP2 172033Z 31005KT 11/M07 A301 RMK A01 T01051071  RH  028%=      5-min Rain = 0
KSP2 172034Z 32002KT 10/M07 A301 RMK A01 T01031071  RH  029%=      5-min Rain = 0
KSP2 172035Z 31004KT 10/M07 A301 RMK A01 T01041070  RH  029%=      5-min Rain = 0
KSP2 172036Z 32004KT 10/M07 A301 RMK A01 T01041070  RH  029%=      5-min Rain = 0
KSP2 172037Z 31002KT 10/M07 A301 RMK A01 T01041070  RH  029%=      5-min Rain = 0
KSP2 172038Z 32002KT 10/M07 A301 RMK A01 T01041071  RH  029%=      5-min Rain = 0
KSP2 172039Z 31001KT 10/M07 A301 RMK A01 T01031072  RH  029%=      5-min Rain = 0
KSP2 172040Z 24000KT 10/M07 A301 RMK A01 T01021071  RH  029%=      5-min Rain = 0
KSP2 172041Z 26000KT 10/M07 A301 RMK A01 T01021071  RH  029%=      5-min Rain = 0
KSP2 172042Z 06000KT 10/M07 A301 RMK A01 T01041071  RH  029%=      5-min Rain = 0
KSP2 172043Z 00000KT 10/M07 A301 RMK A01 T01031072  RH  028%=      5-min Rain = 0
KSP2 172044Z 08002KT 10/M07 A301 RMK A01 T01021071  RH  029%=      5-min Rain = 0
KSP2 172045Z 03001KT 10/M07 A301 RMK A01 T01031070  RH  029%=      5-min Rain = 0
KSP2 172046Z 05001KT 10/M07 A301 RMK A01 T01031070  RH  029%=      5-min Rain = 0
KSP2 172047Z 07001KT 10/M07 A301 RMK A01 T01041068  RH  029%=      5-min Rain = 0
KSP2 172048Z 06003KT 11/M07 A301 RMK A01 T01051069  RH  029%=      5-min Rain = 0
KSP2 172049Z 06002KT 10/M07 A301 RMK A01 T01041070  RH  029%=      5-min Rain = 0
KSP2 172050Z 07001KT 10/M07 A301 RMK A01 T01041070  RH  029%=      5-min Rain = 0
KSP2 172051Z 07002KT 11/M07 A301 RMK A01 T01051069  RH  029%=      5-min Rain = 0
KSP2 172052Z 10001KT 11/M07 A301 RMK A01 T01051069  RH  029%=      5-min Rain = 0
KSP2 172053Z 08001KT 11/M07 A301 RMK A01 T01061068  RH  029%=      5-min Rain = 0
KSP2 172054Z 07001KT 11/M07 A301 RMK A01 T01061069  RH  028%=      5-min Rain = 0
KSP2 172055Z 32001KT 11/M07 A301 RMK A01 T01061069  RH  029%=      5-min Rain = 0
KSP2 172056Z 31004KT 11/M07 A301 RMK A01 T01071067  RH  029%=      5-min Rain = 0
KSP2 172057Z 30004KT 11/M07 A301 RMK A01 T01081069  RH  028%=      5-min Rain = 0
KSP2 172058Z 30004KT 11/M07 A301 RMK A01 T01071069  RH  028%=      5-min Rain = 0
KSP2 172059Z 33003KT 11/M07 A301 RMK A01 T01081069  RH  028%=      5-min Rain = 0
KSP2 172100Z 28004KT 11/M07 A301 RMK A01 T01071070  RH  028%=      5-min Rain = 0
KSP2 172101Z 27004KT 11/M07 A301 RMK A01 T01071070  RH  028%=      5-min Rain = 0
KSP2 172102Z 28004KT 11/M07 A301 RMK A01 T01051070  RH  028%=      5-min Rain = 0
KSP2 172103Z 28004KT 11/M07 A301 RMK A01 T01061070  RH  028%=      5-min Rain = 0
KSP2 172104Z 35004KT 11/M07 A301 RMK A01 T01061069  RH  028%=      5-min Rain = 0
KSP2 172105Z 34003KT 11/M07 A301 RMK A01 T01081068  RH  028%=      5-min Rain = 0
KSP2 172106Z 34003KT 11/M07 A301 RMK A01 T01091069  RH  028%=      5-min Rain = 0
KSP2 172107Z 35002KT 11/M07 A301 RMK A01 T01081069  RH  028%=      5-min Rain = 0
KSP2 172108Z 31003KT 11/M07 A301 RMK A01 T01091068  RH  028%=      5-min Rain = 0
KSP2 172109Z 29003KT 11/M07 A301 RMK A01 T01101069  RH  028%=      5-min Rain = 0
KSP2 172110Z 28003KT 11/M07 A301 RMK A01 T01091070  RH  028%=      5-min Rain = 0
KSP2 172111Z 34002KT 11/M07 A301 RMK A01 T01081070  RH  028%=      5-min Rain = 0
KSP2 172112Z 34002KT 11/M07 A301 RMK A01 T01081070  RH  028%=      5-min Rain = 0
KSP2 172113Z 36000KT 11/M07 A301 RMK A01 T01071071  RH  028%=      5-min Rain = 0
KSP2 172114Z 36001KT 11/M07 A301 RMK A01 T01071070  RH  028%=      5-min Rain = 0
KSP2 172115Z 36003KT 11/M07 A301 RMK A01 T01081069  RH  028%=      5-min Rain = 0
KSP2 172116Z 00002KT 11/M07 A301 RMK A01 T01081070  RH  028%=      5-min Rain = 0
KSP2 172117Z 35003KT 11/M07 A301 RMK A01 T01081070  RH  028%=      5-min Rain = 0
KSP2 172118Z 34002KT 11/M07 A301 RMK A01 T01081067  RH  028%=      5-min Rain = 0
KSP2 172119Z 03001KT 11/M07 A301 RMK A01 T01121067  RH  028%=      5-min Rain = 0
KSP2 172120Z 18001KT 11/M07 A301 RMK A01 T01121069  RH  027%=      5-min Rain = 0
KSP2 172121Z 27001KT 11/M07 A301 RMK A01 T01121067  RH  028%=      5-min Rain = 0
KSP2 172122Z 25003KT 12/M07 A301 RMK A01 T01161065  RH  028%=      5-min Rain = 0
KSP2 172123Z 22002KT 11/M07 A301 RMK A01 T01141071  RH  027%=      5-min Rain = 0
KSP2 172124Z 15001KT 11/M07 A301 RMK A01 T01111071  RH  027%=      5-min Rain = 0
KSP2 172125Z 20001KT 11/M07 A301 RMK A01 T01121068  RH  028%=      5-min Rain = 0
KSP2 172126Z 21001KT 11/M07 A301 RMK A01 T01141068  RH  027%=      5-min Rain = 0
KSP2 172127Z 33001KT 12/M07 A301 RMK A01 T01171065  RH  027%=      5-min Rain = 0
KSP2 172128Z 32003KT 12/M07 A301 RMK A01 T01191067  RH  027%=      5-min Rain = 0
KSP2 172129Z 00003KT 12/M07 A301 RMK A01 T01181068  RH  027%=      5-min Rain = 0
KSP2 172130Z 32004KT 12/M07 A301 RMK A01 T01171069  RH  027%=      5-min Rain = 0
KSP2 172131Z 33004KT 11/M07 A301 RMK A01 T01141069  RH  027%=      5-min Rain = 0
KSP2 172132Z 34003KT 11/M07 A301 RMK A01 T01121070  RH  027%=      5-min Rain = 0
KSP2 172133Z 32004KT 11/M07 A301 RMK A01 T01121069  RH  028%=      5-min Rain = 0
KSP2 172134Z 31004KT 11/M07 A301 RMK A01 T01121069  RH  028%=      5-min Rain = 0
KSP2 172135Z 31005KT 11/M07 A301 RMK A01 T01121068  RH  028%=      5-min Rain = 0
KSP2 172136Z 32005KT 11/M07 A301 RMK A01 T01101070  RH  028%=      5-min Rain = 0
KSP2 172137Z 32005KT 11/M07 A301 RMK A01 T01081071  RH  028%=      5-min Rain = 0
KSP2 172138Z 31004KT 11/M07 A301 RMK A01 T01081070  RH  028%=      5-min Rain = 0
KSP2 172139Z 30004KT 11/M07 A3009 RMK A01 T01081070  RH  028%=      5-min Rain = 0
KSP2 172140Z 29004KT 11/M07 A3009 RMK A01 T01071070  RH  028%=      5-min Rain = 0
KSP2 172141Z 28004KT 11/M07 A3009 RMK A01 T01071070  RH  028%=      5-min Rain = 0
KSP2 172142Z 30002KT 11/M07 A3009 RMK A01 T01071071  RH  028%=      5-min Rain = 0
KSP2 172143Z 30002KT 11/M07 A3009 RMK A01 T01071071  RH  028%=      5-min Rain = 0
KSP2 172144Z 31002KT 11/M07 A3009 RMK A01 T01081070  RH  028%=      5-min Rain = 0
KSP2 172145Z 35002KT 11/M07 A3009 RMK A01 T01081070  RH  028%=      5-min Rain = 0
KSP2 172146Z 01002KT 11/M07 A3009 RMK A01 T01091069  RH  028%=      5-min Rain = 0
KSP2 172147Z 03001KT 11/M07 A3009 RMK A01 T01101069  RH  028%=      5-min Rain = 0
KSP2 172148Z 22001KT 11/M07 A3009 RMK A01 T01111069  RH  028%=      5-min Rain = 0
KSP2 172149Z 27002KT 11/M07 A3009 RMK A01 T01121068  RH  028%=      5-min Rain = 0
KSP2 172150Z 27002KT 11/M07 A3009 RMK A01 T01121070  RH  027%=      5-min Rain = 0
KSP2 172151Z 26003KT 11/M07 A3009 RMK A01 T01121070  RH  027%=      5-min Rain = 0
KSP2 172152Z 27003KT 11/M07 A3009 RMK A01 T01101072  RH  027%=      5-min Rain = 0
KSP2 172153Z 26002KT 11/M07 A3009 RMK A01 T01081071  RH  028%=      5-min Rain = 0
KSP2 172154Z 23001KT 11/M07 A3009 RMK A01 T01081070  RH  028%=      5-min Rain = 0
KSP2 172155Z 26002KT 11/M07 A3009 RMK A01 T01091070  RH  028%=      5-min Rain = 0
KSP2 172156Z 29001KT 11/M07 A3009 RMK A01 T01101071  RH  027%=      5-min Rain = 0
KSP2 172157Z 08000KT 11/M07 A3009 RMK A01 T01091071  RH  028%=      5-min Rain = 0
KSP2 172158Z 27001KT 11/M07 A3009 RMK A01 T01101069  RH  028%=      5-min Rain = 0
KSP2 172159Z 27002KT 11/M07 A3009 RMK A01 T01111069  RH  028%=      5-min Rain = 0
KSP2 172200Z 30002KT 11/M07 A3009 RMK A01 T01111070  RH  027%=      5-min Rain = 0
KSP2 172201Z 31002KT 11/M07 A3009 RMK A01 T01111070  RH  027%=      5-min Rain = 0
KSP2 172202Z 32002KT 11/M07 A3009 RMK A01 T01101070  RH  027%=      5-min Rain = 0
KSP2 172203Z 32000KT 11/M07 A3009 RMK A01 T01091071  RH  028%=      5-min Rain = 0
KSP2 172204Z 30003KT 11/M07 A3009 RMK A01 T01091071  RH  028%=      5-min Rain = 0
KSP2 172205Z 32002KT 11/M07 A3009 RMK A01 T01091071  RH  028%=      5-min Rain = 0
KSP2 172206Z 33002KT 11/M07 A3009 RMK A01 T01091070  RH  028%=      5-min Rain = 0
KSP2 172207Z 33003KT 11/M07 A3009 RMK A01 T01081070  RH  028%=      5-min Rain = 0
KSP2 172208Z 33003KT 11/M07 A3009 RMK A01 T01081071  RH  028%=      5-min Rain = 0
KSP2 172209Z 32002KT 11/M07 A3009 RMK A01 T01071071  RH  028%=      5-min Rain = 0
KSP2 172210Z 33001KT 11/M07 A3009 RMK A01 T01071070  RH  028%=      5-min Rain = 0
KSP2 172211Z 29001KT 11/M07 A3009 RMK A01 T01071070  RH  028%=      5-min Rain = 0
KSP2 172212Z 23001KT 11/M07 A3009 RMK A01 T01081070  RH  028%=      5-min Rain = 0
KSP2 172213Z 21002KT 11/M07 A3009 RMK A01 T01101069  RH  028%=      5-min Rain = 0
KSP2 172214Z 16001KT 11/M07 A3009 RMK A01 T01111069  RH  028%=      5-min Rain = 0
KSP2 172215Z 17002KT 11/M07 A3009 RMK A01 T01131067  RH  028%=      5-min Rain = 0
KSP2 172216Z 16002KT 11/M07 A3009 RMK A01 T01131069  RH  027%=      5-min Rain = 0
KSP2 172217Z 17002KT 11/M07 A3009 RMK A01 T01121070  RH  027%=      5-min Rain = 0
KSP2 172218Z 17001KT 11/M07 A3009 RMK A01 T01111069  RH  028%=      5-min Rain = 0
KSP2 172219Z 16002KT 11/M07 A3009 RMK A01 T01111068  RH  028%=      5-min Rain = 0
KSP2 172220Z 13001KT 11/M07 A3008 RMK A01 T01121070  RH  027%=      5-min Rain = 0
KSP2 172221Z 09001KT 11/M07 A3008 RMK A01 T01121069  RH  028%=      5-min Rain = 0
KSP2 172222Z 01002KT 11/M07 A3008 RMK A01 T01131067  RH  028%=      5-min Rain = 0
KSP2 172223Z 00002KT 11/M07 A3008 RMK A01 T01121069  RH  027%=      5-min Rain = 0
KSP2 172224Z 01000KT 11/M07 A3008 RMK A01 T01121069  RH  027%=      5-min Rain = 0
KSP2 172225Z 34001KT 11/M07 A3008 RMK A01 T01131069  RH  027%=      5-min Rain = 0
KSP2 172226Z 27001KT 11/M07 A3008 RMK A01 T01131068  RH  027%=      5-min Rain = 0
KSP2 172227Z 26001KT 11/M07 A3008 RMK A01 T01141069  RH  027%=      5-min Rain = 0
KSP2 172228Z 23001KT 11/M07 A3008 RMK A01 T01141069  RH  027%=      5-min Rain = 0
KSP2 172229Z 21000KT 11/M07 A3008 RMK A01 T01141070  RH  027%=      5-min Rain = 0
KSP2 172230Z 13001KT 12/M07 A3008 RMK A01 T01151070  RH  027%=      5-min Rain = 0
KSP2 172231Z 16002KT 12/M07 A3008 RMK A01 T01151069  RH  027%=      5-min Rain = 0
KSP2 172232Z 15001KT 11/M07 A3008 RMK A01 T01131069  RH  027%=      5-min Rain = 0
KSP2 172233Z 17001KT 11/M07 A3008 RMK A01 T01131068  RH  027%=      5-min Rain = 0
KSP2 172234Z 16000KT 11/M07 A3008 RMK A01 T01131067  RH  028%=      5-min Rain = 0
KSP2 172235Z 33001KT 11/M07 A3008 RMK A01 T01131068  RH  027%=      5-min Rain = 0
KSP2 172236Z 33002KT 11/M07 A3008 RMK A01 T01131069  RH  027%=      5-min Rain = 0
KSP2 172237Z 31003KT 11/M07 A3008 RMK A01 T01121069  RH  027%=      5-min Rain = 0
KSP2 172238Z 31004KT 11/M07 A3008 RMK A01 T01101069  RH  028%=      5-min Rain = 0
KSP2 172239Z 31003KT 11/M07 A3008 RMK A01 T01081069  RH  028%=      5-min Rain = 0
KSP2 172240Z 30005KT 11/M07 A3008 RMK A01 T01081068  RH  028%=      5-min Rain = 0
KSP2 172241Z 30004KT 11/M07 A3008 RMK A01 T01081068  RH  028%=      5-min Rain = 0
KSP2 172242Z 29003KT 11/M07 A3008 RMK A01 T01071069  RH  028%=      5-min Rain = 0
KSP2 172243Z 28002KT 11/M07 A3008 RMK A01 T01061070  RH  028%=      5-min Rain = 0
KSP2 172244Z 32002KT 11/M07 A3008 RMK A01 T01061069  RH  029%=      5-min Rain = 0
KSP2 172245Z 25003KT 11/M07 A3008 RMK A01 T01061069  RH  029%=      5-min Rain = 0
KSP2 172246Z 26004KT 11/M07 A3008 RMK A01 T01061067  RH  029%=      5-min Rain = 0
KSP2 172247Z 27004KT 11/M07 A3008 RMK A01 T01071067  RH  029%=      5-min Rain = 0
KSP2 172248Z 27003KT 11/M07 A3008 RMK A01 T01071068  RH  029%=      5-min Rain = 0
KSP2 172249Z 27003KT 11/M07 A3008 RMK A01 T01061069  RH  029%=      5-min Rain = 0
KSP2 172250Z 27003KT 11/M07 A3008 RMK A01 T01061069  RH  029%=      5-min Rain = 0
KSP2 172251Z 26002KT 11/M07 A3008 RMK A01 T01051069  RH  029%=      5-min Rain = 0
KSP2 172252Z 26002KT 11/M07 A3008 RMK A01 T01061068  RH  029%=      5-min Rain = 0
KSP2 172253Z 28002KT 11/M07 A3008 RMK A01 T01071066  RH  029%=      5-min Rain = 0
KSP2 172254Z 28004KT 11/M07 A3008 RMK A01 T01081066  RH  029%=      5-min Rain = 0
KSP2 172255Z 27005KT 11/M07 A3007 RMK A01 T01081066  RH  029%=      5-min Rain = 0
KSP2 172256Z 26004KT 11/M07 A3007 RMK A01 T01071068  RH  029%=      5-min Rain = 0
KSP2 172257Z 26003KT 11/M07 A3007 RMK A01 T01061068  RH  029%=      5-min Rain = 0
KSP2 172258Z 27001KT 11/M07 A3007 RMK A01 T01051069  RH  029%=      5-min Rain = 0
KSP2 172259Z 28000KT 11/M07 A3007 RMK A01 T01051069  RH  029%=      5-min Rain = 0
KSP2 172300Z 34000KT 11/M07 A3007 RMK A01 T01051070  RH  029%=      5-min Rain = 0
KSP2 172301Z 00000KT 11/M07 A3007 RMK A01 T01061069  RH  029%=      5-min Rain = 0
KSP2 172302Z 00000KT 11/M07 A3007 RMK A01 T01071068  RH  029%=      5-min Rain = 0
KSP2 172303Z 19000KT 11/M07 A3007 RMK A01 T01101066  RH  028%=      5-min Rain = 0
KSP2 172304Z 18002KT 11/M07 A3007 RMK A01 T01121066  RH  028%=      5-min Rain = 0
KSP2 172305Z 20002KT 11/M07 A3007 RMK A01 T01121067  RH  028%=      5-min Rain = 0
KSP2 172306Z 21003KT 11/M07 A3007 RMK A01 T01111066  RH  028%=      5-min Rain = 0
KSP2 172307Z 20003KT 11/M06 A3007 RMK A01 T01111064  RH  029%=      5-min Rain = 0
KSP2 172308Z 19003KT 11/M07 A3007 RMK A01 T01091067  RH  028%=      5-min Rain = 0
KSP2 172309Z 21004KT 11/M07 A3007 RMK A01 T01071067  RH  029%=      5-min Rain = 0
KSP2 172310Z 20004KT 11/M07 A3007 RMK A01 T01061066  RH  029%=      5-min Rain = 0
KSP2 172311Z 20004KT 11/M07 A3007 RMK A01 T01061067  RH  029%=      5-min Rain = 0
KSP2 172312Z 20004KT 11/M07 A3007 RMK A01 T01051066  RH  029%=      5-min Rain = 0
KSP2 172313Z 20004KT 10/M07 A3007 RMK A01 T01041067  RH  029%=      5-min Rain = 0
KSP2 172314Z 22004KT 10/M07 A3007 RMK A01 T01041066  RH  030%=      5-min Rain = 0
KSP2 172315Z 23005KT 10/M07 A3007 RMK A01 T01041065  RH  030%=      5-min Rain = 0
KSP2 172316Z 21003KT 10/M07 A3007 RMK A01 T01041066  RH  030%=      5-min Rain = 0
KSP2 172317Z 21003KT 10/M07 A3007 RMK A01 T01031065  RH  030%=      5-min Rain = 0
KSP2 172318Z 20003KT 10/M07 A3007 RMK A01 T01031065  RH  030%=      5-min Rain = 0
KSP2 172319Z 20002KT 10/M07 A3007 RMK A01 T01031065  RH  030%=      5-min Rain = 0
KSP2 172320Z 20002KT 10/M06 A3007 RMK A01 T01031064  RH  030%=      5-min Rain = 0
KSP2 172321Z 21002KT 10/M06 A3007 RMK A01 T01021064  RH  031%=      5-min Rain = 0
KSP2 172322Z 21002KT 10/M06 A3007 RMK A01 T01021064  RH  030%=      5-min Rain = 0
KSP2 172323Z 20003KT 10/M07 A3007 RMK A01 T01011065  RH  030%=      5-min Rain = 0
KSP2 172324Z 21004KT 10/M07 A3007 RMK A01 T01001066  RH  030%=      5-min Rain = 0
KSP2 172325Z 21005KT 10/M07 A3007 RMK A01 T00991066  RH  031%=      5-min Rain = 0
KSP2 172326Z 24005KT 10/M07 A3007 RMK A01 T00971066  RH  031%=      5-min Rain = 0
KSP2 172327Z 23004KT 10/M07 A3007 RMK A01 T00971065  RH  031%=      5-min Rain = 0
KSP2 172328Z 22004KT 10/M07 A3007 RMK A01 T00961065  RH  032%=      5-min Rain = 0
KSP2 172329Z 22005KT 10/M06 A3007 RMK A01 T00961064  RH  032%=      5-min Rain = 0
KSP2 172330Z 22005KT 10/M06 A3007 RMK A01 T00961064  RH  032%=      5-min Rain = 0
KSP2 172331Z 22005KT 10/M07 A3007 RMK A01 T00951065  RH  032%=      5-min Rain = 0
KSP2 172332Z 22005KT 09/M07 A3007 RMK A01 T00941065  RH  032%=      5-min Rain = 0
KSP2 172333Z 22005KT 09/M07 A3007 RMK A01 T00931066  RH  032%=      5-min Rain = 0
KSP2 172334Z 21006KT 09/M07 A3007 RMK A01 T00921066  RH  032%=      5-min Rain = 0
KSP2 172335Z 22005KT 09/M07 A3007 RMK A01 T00911066  RH  032%=      5-min Rain = 0
KSP2 172336Z 22005KT 09/M07 A3007 RMK A01 T00911066  RH  033%=      5-min Rain = 0
KSP2 172337Z 22004KT 09/M07 A3007 RMK A01 T00901065  RH  033%=      5-min Rain = 0
KSP2 172338Z 22004KT 09/M07 A3007 RMK A01 T00901065  RH  033%=      5-min Rain = 0
KSP2 172339Z 22004KT 09/M07 A3007 RMK A01 T00891065  RH  033%=      5-min Rain = 0
KSP2 172340Z 22004KT 09/M07 A3007 RMK A01 T00891065  RH  033%=      5-min Rain = 0
KSP2 172341Z 22004KT 09/M07 A3007 RMK A01 T00881065  RH  033%=      5-min Rain = 0
KSP2 172342Z 22004KT 09/M07 A3007 RMK A01 T00871065  RH  034%=      5-min Rain = 0
KSP2 172343Z 22004KT 09/M07 A3007 RMK A01 T00861065  RH  034%=      5-min Rain = 0
KSP2 172344Z 22003KT 09/M07 A3007 RMK A01 T00851065  RH  034%=      5-min Rain = 0
KSP2 172345Z 22004KT 08/M07 A3007 RMK A01 T00841065  RH  034%=      5-min Rain = 0
KSP2 172346Z 22004KT 08/M07 A3007 RMK A01 T00831065  RH  035%=      5-min Rain = 0
KSP2 172347Z 22003KT 08/M07 A3007 RMK A01 T00821067  RH  034%=      5-min Rain = 0
KSP2 172348Z 22004KT 08/M07 A3007 RMK A01 T00801069  RH  034%=      5-min Rain = 0
KSP2 172349Z 22004KT 08/M07 A3007 RMK A01 T00781068  RH  035%=      5-min Rain = 0
KSP2 172350Z 22003KT 08/M07 A3007 RMK A01 T00771069  RH  035%=      5-min Rain = 0
KSP2 172351Z 22004KT 08/M07 A3007 RMK A01 T00751070  RH  035%=      5-min Rain = 0
KSP2 172352Z 22003KT 07/M07 A3007 RMK A01 T00731071  RH  035%=      5-min Rain = 0
KSP2 172353Z 23004KT 07/M07 A3007 RMK A01 T00711071  RH  036%=      5-min Rain = 0
KSP2 172354Z 23004KT 07/M07 A3007 RMK A01 T00701070  RH  036%=      5-min Rain = 0
KSP2 172355Z 23004KT 07/M07 A3007 RMK A01 T00691068  RH  037%=      5-min Rain = 0
KSP2 172356Z 23004KT 07/M07 A3007 RMK A01 T00691068  RH  037%=      5-min Rain = 0
KSP2 172357Z 22004KT 07/M07 A3007 RMK A01 T00681070  RH  037%=      5-min Rain = 0
KSP2 172358Z 22004KT 07/M07 A3007 RMK A01 T00661070  RH  037%=      5-min Rain = 0
KSP2 172359Z 22004KT 07/M07 A3007 RMK A01 T00651071  RH  037%=      5-min Rain = 0
KSP2 180000Z 22004KT 06/M07 A3007 RMK A01 T00631070  RH  038%=      5-min Rain = 0
KSP2 180001Z 22004KT 06/M07 A3007 RMK A01 T00611071  RH  038%=      5-min Rain = 0
KSP2 180002Z 22004KT 06/M07 A3007 RMK A01 T00591072  RH  038%=      5-min Rain = 0
KSP2 180003Z 21004KT 06/M07 A3007 RMK A01 T00571072  RH  039%=      5-min Rain = 0
KSP2 180004Z 21004KT 06/M07 A3007 RMK A01 T00561071  RH  039%=      5-min Rain = 0
KSP2 180005Z 21004KT 06/M07 A3007 RMK A01 T00551071  RH  040%=      5-min Rain = 0
KSP2 180006Z 21004KT 05/M07 A3007 RMK A01 T00531072  RH  040%=      5-min Rain = 0
KSP2 180007Z 21004KT 05/M07 A3007 RMK A01 T00521071  RH  041%=      5-min Rain = 0
KSP2 180008Z 21004KT 05/M07 A3007 RMK A01 T00511070  RH  041%=      5-min Rain = 0
KSP2 180009Z 21004KT 05/M07 A3007 RMK A01 T00501069  RH  042%=      5-min Rain = 0
KSP2 180010Z 19003KT 05/M07 A3007 RMK A01 T00481071  RH  042%=      5-min Rain = 0
KSP2 180011Z 20003KT 05/M07 A3007 RMK A01 T00461071  RH  042%=      5-min Rain = 0
KSP2 180012Z 20003KT 04/M07 A3007 RMK A01 T00441071  RH  043%=      5-min Rain = 0
KSP2 180013Z 20003KT 04/M07 A3007 RMK A01 T00431070  RH  044%=      5-min Rain = 0
KSP2 180014Z 20003KT 04/M07 A3007 RMK A01 T00421069  RH  044%=      5-min Rain = 0
KSP2 180015Z 20003KT 04/M07 A3007 RMK A01 T00421069  RH  044%=      5-min Rain = 0
KSP2 180016Z 20003KT 04/M07 A3007 RMK A01 T00421069  RH  044%=      5-min Rain = 0
KSP2 180017Z 20003KT 04/M07 A3007 RMK A01 T00411069  RH  045%=      5-min Rain = 0
KSP2 180018Z 20004KT 04/M07 A3007 RMK A01 T00401070  RH  045%=      5-min Rain = 0
KSP2 180019Z 20004KT 04/M07 A3007 RMK A01 T00391070  RH  045%=      5-min Rain = 0
KSP2 180020Z 20004KT 04/M07 A3007 RMK A01 T00381071  RH  045%=      5-min Rain = 0
KSP2 180021Z 20005KT 04/M07 A3007 RMK A01 T00371071  RH  045%=      5-min Rain = 0
KSP2 180022Z 19004KT 04/M07 A3007 RMK A01 T00361071  RH  045%=      5-min Rain = 0
KSP2 180023Z 19004KT 04/M07 A3007 RMK A01 T00351071  RH  046%=      5-min Rain = 0
KSP2 180024Z 19004KT 03/M07 A3007 RMK A01 T00341072  RH  046%=      5-min Rain = 0
KSP2 180025Z 19004KT 03/M07 A3007 RMK A01 T00311072  RH  046%=      5-min Rain = 0
KSP2 180026Z 19004KT 03/M07 A3007 RMK A01 T00281073  RH  047%=      5-min Rain = 0
KSP2 180027Z 18004KT 03/M07 A3007 RMK A01 T00261073  RH  048%=      5-min Rain = 0
KSP2 180028Z 18005KT 02/M07 A3007 RMK A01 T00241073  RH  049%=      5-min Rain = 0
KSP2 180029Z 18007KT 03/M07 A3007 RMK A01 T00261072  RH  049%=      5-min Rain = 0
KSP2 180030Z 18006KT 03/M07 A3007 RMK A01 T00261072  RH  048%=      5-min Rain = 0
KSP2 180031Z 18006KT 03/M07 A3007 RMK A01 T00271072  RH  048%=      5-min Rain = 0
KSP2 180032Z 18005KT 03/M07 A3007 RMK A01 T00281072  RH  048%=      5-min Rain = 0
KSP2 180033Z 18005KT 03/M07 A3007 RMK A01 T00281073  RH  047%=      5-min Rain = 0
KSP2 180034Z 19006KT 03/M07 A3007 RMK A01 T00271074  RH  047%=      5-min Rain = 0
KSP2 180035Z 19006KT 03/M08 A3007 RMK A01 T00251075  RH  048%=      5-min Rain = 0
KSP2 180036Z 19006KT 02/M08 A3007 RMK A01 T00241076  RH  048%=      5-min Rain = 0
KSP2 180037Z 18006KT 02/M08 A3007 RMK A01 T00221076  RH  048%=      5-min Rain = 0
KSP2 180038Z 18006KT 02/M08 A3007 RMK A01 T00221075  RH  049%=      5-min Rain = 0
KSP2 180039Z 19006KT 02/M08 A3007 RMK A01 T00211075  RH  049%=      5-min Rain = 0
KSP2 180040Z 19006KT 02/M07 A3007 RMK A01 T00211074  RH  050%=      5-min Rain = 0
KSP2 180041Z 19006KT 02/M07 A3007 RMK A01 T00211074  RH  050%=      5-min Rain = 0
KSP2 180042Z 19006KT 02/M07 A3007 RMK A01 T00211074  RH  050%=      5-min Rain = 0
KSP2 180043Z 19006KT 02/M07 A3007 RMK A01 T00211074  RH  050%=      5-min Rain = 0
KSP2 180044Z 19006KT 02/M07 A3007 RMK A01 T00201074  RH  050%=      5-min Rain = 0
KSP2 180045Z 19006KT 02/M07 A3007 RMK A01 T00201074  RH  050%=      5-min Rain = 0
KSP2 180046Z 19006KT 02/M07 A3007 RMK A01 T00191074  RH  050%=      5-min Rain = 0
KSP2 180047Z 19005KT 02/M08 A3007 RMK A01 T00181075  RH  050%=      5-min Rain = 0
KSP2 180048Z 18005KT 02/M07 A3007 RMK A01 T00171074  RH  051%=      5-min Rain = 0
KSP2 180049Z 18005KT 02/M07 A3007 RMK A01 T00171074  RH  051%=      5-min Rain = 0
KSP2 180050Z 18005KT 02/M07 A3007 RMK A01 T00171074  RH  051%=      5-min Rain = 0
KSP2 180051Z 19005KT 02/M07 A3007 RMK A01 T00161074  RH  051%=      5-min Rain = 0
KSP2 180052Z 19006KT 02/M08 A3007 RMK A01 T00161075  RH  051%=      5-min Rain = 0
KSP2 180053Z 19006KT 02/M08 A3007 RMK A01 T00151075  RH  051%=      5-min Rain = 0
KSP2 180054Z 19006KT 01/M08 A3008 RMK A01 T00131076  RH  051%=      5-min Rain = 0
KSP2 180055Z 19006KT 01/M08 A3008 RMK A01 T00111079  RH  051%=      5-min Rain = 0
KSP2 180056Z 19006KT 01/M08 A3008 RMK A01 T00101079  RH  052%=      5-min Rain = 0
KSP2 180057Z 19006KT 01/M08 A3007 RMK A01 T00111077  RH  052%=      5-min Rain = 0
KSP2 180058Z 19006KT 01/M08 A3007 RMK A01 T00131075  RH  052%=      5-min Rain = 0
KSP2 180059Z 20006KT 02/M07 A3007 RMK A01 T00151074  RH  051%=      5-min Rain = 0
KSP2 180100Z 19006KT 02/M07 A3007 RMK A01 T00181073  RH  051%=      5-min Rain = 0
KSP2 180101Z 19006KT 02/M07 A3007 RMK A01 T00181074  RH  050%=      5-min Rain = 0
KSP2 180102Z 20006KT 02/M07 A3007 RMK A01 T00181074  RH  050%=      5-min Rain = 0
KSP2 180103Z 20006KT 02/M08 A3007 RMK A01 T00171075  RH  050%=      5-min Rain = 0
KSP2 180104Z 20006KT 02/M08 A3007 RMK A01 T00171075  RH  050%=      5-min Rain = 0
KSP2 180105Z 20006KT 02/M08 A3007 RMK A01 T00151076  RH  051%=      5-min Rain = 0
KSP2 180106Z 20006KT 01/M08 A3007 RMK A01 T00141076  RH  051%=      5-min Rain = 0
KSP2 180107Z 20006KT 01/M08 A3007 RMK A01 T00121078  RH  051%=      5-min Rain = 0
KSP2 180108Z 19006KT 01/M08 A3007 RMK A01 T00101078  RH  052%=      5-min Rain = 0
KSP2 180109Z 19006KT 01/M08 A3007 RMK A01 T00091078  RH  052%=      5-min Rain = 0
KSP2 180110Z 19007KT 01/M08 A3007 RMK A01 T00071078  RH  053%=      5-min Rain = 0
KSP2 180111Z 19006KT 01/M08 A3008 RMK A01 T00061078  RH  053%=      5-min Rain = 0
KSP2 180112Z 19006KT 01/M08 A3008 RMK A01 T00061077  RH  054%=      5-min Rain = 0
KSP2 180113Z 19006KT 01/M08 A3008 RMK A01 T00051077  RH  054%=      5-min Rain = 0
KSP2 180114Z 19006KT 01/M08 A3008 RMK A01 T00051077  RH  054%=      5-min Rain = 0
KSP2 180115Z 19006KT 00/M08 A3008 RMK A01 T00041077  RH  054%=      5-min Rain = 0
KSP2 180116Z 19007KT 00/M08 A3008 RMK A01 T00041077  RH  055%=      5-min Rain = 0
KSP2 180117Z 19006KT 00/M08 A3007 RMK A01 T00041077  RH  055%=      5-min Rain = 0
KSP2 180118Z 19006KT 00/M08 A3007 RMK A01 T00031077  RH  055%=      5-min Rain = 0
KSP2 180119Z 19007KT 00/M08 A3007 RMK A01 T00031077  RH  055%=      5-min Rain = 0
KSP2 180120Z 19008KT 00/M08 A3007 RMK A01 T00031076  RH  055%=      5-min Rain = 0
KSP2 180121Z 19008KT 00/M08 A3007 RMK A01 T00021076  RH  056%=      5-min Rain = 0
KSP2 180122Z 19008KT 00/M08 A3007 RMK A01 T00021075  RH  056%=      5-min Rain = 0
KSP2 180123Z 19008KT 00/M07 A3007 RMK A01 T00031074  RH  056%=      5-min Rain = 0
KSP2 180124Z 19007KT 00/M07 A3007 RMK A01 T00031074  RH  056%=      5-min Rain = 0
KSP2 180125Z 20007KT 00/M08 A3007 RMK A01 T00031075  RH  056%=      5-min Rain = 0
KSP2 180126Z 19007KT 00/M08 A3007 RMK A01 T00021076  RH  056%=      5-min Rain = 0
KSP2 180127Z 20007KT 00/M08 A3007 RMK A01 T00011076  RH  056%=      5-min Rain = 0
KSP2 180128Z 20008KT 00/M08 A3007 RMK A01 T00011075  RH  057%=      5-min Rain = 0
KSP2 180129Z 20008KT 00/07 A3007 RMK A01 T00000-74  RH  057%=      5-min Rain = 0
KSP2 180130Z 20008KT 00/07 A3007 RMK A01 T00000-73  RH  058%=      5-min Rain = 0
KSP2 180131Z 19008KT 00/M07 A3007 RMK A01 T00011073  RH  058%=      5-min Rain = 0
KSP2 180132Z 20007KT 00/M07 A3007 RMK A01 T00011072  RH  058%=      5-min Rain = 0
KSP2 180133Z 19007KT 00/M07 A3007 RMK A01 T00021071  RH  058%=      5-min Rain = 0
KSP2 180134Z 19007KT 00/M07 A3007 RMK A01 T00021071  RH  058%=      5-min Rain = 0
KSP2 180135Z 20007KT 00/M07 A3007 RMK A01 T00021071  RH  058%=      5-min Rain = 0
KSP2 180136Z 20007KT 00/M07 A3007 RMK A01 T00011071  RH  058%=      5-min Rain = 0
KSP2 180137Z 20006KT 00/M07 A3007 RMK A01 T00011071  RH  058%=      5-min Rain = 0
KSP2 180138Z 20006KT 00/M07 A3007 RMK A01 T00011071  RH  058%=      5-min Rain = 0
KSP2 180139Z 20006KT 00/07 A3007 RMK A01 T00000-72  RH  058%=      5-min Rain = 0
KSP2 180140Z 20006KT M00/M07 A3007 RMK A01 T10011073  RH  059%=      5-min Rain = 0
KSP2 180141Z 19006KT M00/M07 A3007 RMK A01 T10021073  RH  059%=      5-min Rain = 0
KSP2 180142Z 18006KT M00/M07 A3007 RMK A01 T10031072  RH  060%=      5-min Rain = 0
KSP2 180143Z 18007KT M01/M07 A3006 RMK A01 T10051073  RH  060%=      5-min Rain = 0
KSP2 180144Z 19007KT M01/M07 A3006 RMK A01 T10061071  RH  061%=      5-min Rain = 0
KSP2 180145Z 19007KT M01/M07 A3006 RMK A01 T10061071  RH  062%=      5-min Rain = 0
KSP2 180146Z 20007KT M01/M07 A3006 RMK A01 T10061071  RH  061%=      5-min Rain = 0
KSP2 180147Z 20007KT M01/M07 A3006 RMK A01 T10061071  RH  061%=      5-min Rain = 0
KSP2 180148Z 20008KT M01/M07 A3006 RMK A01 T10061072  RH  061%=      5-min Rain = 0
KSP2 180149Z 20008KT M01/M07 A3006 RMK A01 T10061072  RH  061%=      5-min Rain = 0
KSP2 180150Z 20007KT M01/M07 A3006 RMK A01 T10061072  RH  061%=      5-min Rain = 0
KSP2 180151Z 19008KT M01/M07 A3006 RMK A01 T10061073  RH  061%=      5-min Rain = 0
KSP2 180152Z 19007KT M01/M07 A3006 RMK A01 T10071072  RH  061%=      5-min Rain = 0
KSP2 180153Z 19007KT M01/M07 A3006 RMK A01 T10071072  RH  061%=      5-min Rain = 0
KSP2 180154Z 20007KT M01/M07 A3006 RMK A01 T10071072  RH  061%=      5-min Rain = 0
KSP2 180155Z 20007KT M01/M07 A3006 RMK A01 T10081072  RH  061%=      5-min Rain = 0
KSP2 180156Z 20007KT M01/M07 A3006 RMK A01 T10091073  RH  062%=      5-min Rain = 0
KSP2 180157Z 19007KT M01/M07 A3006 RMK A01 T10091073  RH  062%=      5-min Rain = 0
KSP2 180158Z 19007KT M01/M07 A3006 RMK A01 T10091073  RH  062%=      5-min Rain = 0
KSP2 180159Z 19007KT M01/M07 A3006 RMK A01 T10101073  RH  062%=      5-min Rain = 0
KSP2 180200Z 19007KT M01/M07 A3006 RMK A01 T10101073  RH  063%=      5-min Rain = 0
KSP2 180201Z 19007KT M01/M07 A3006 RMK A01 T10111072  RH  063%=      5-min Rain = 0
KSP2 180202Z 19006KT M01/M07 A3006 RMK A01 T10111072  RH  063%=      5-min Rain = 0
KSP2 180203Z 19006KT M01/M07 A3006 RMK A01 T10111072  RH  063%=      5-min Rain = 0
KSP2 180204Z 19006KT M01/M07 A3006 RMK A01 T10121073  RH  063%=      5-min Rain = 0
KSP2 180205Z 19007KT M01/M07 A3005 RMK A01 T10131073  RH  064%=      5-min Rain = 0
KSP2 180206Z 19007KT M01/M07 A3005 RMK A01 T10131072  RH  064%=      5-min Rain = 0
KSP2 180207Z 20007KT M01/M07 A3005 RMK A01 T10131071  RH  065%=      5-min Rain = 0
KSP2 180208Z 20006KT M01/M07 A3005 RMK A01 T10131071  RH  065%=      5-min Rain = 0
KSP2 180209Z 20006KT M01/M07 A3005 RMK A01 T10131071  RH  065%=      5-min Rain = 0
KSP2 180210Z 19006KT M01/M07 A3005 RMK A01 T10131071  RH  065%=      5-min Rain = 0
KSP2 180211Z 19006KT M01/M07 A3005 RMK A01 T10131071  RH  065%=      5-min Rain = 0
KSP2 180212Z 19006KT M01/M07 A3005 RMK A01 T10141071  RH  065%=      5-min Rain = 0
KSP2 180213Z 19006KT M02/M07 A3005 RMK A01 T10151072  RH  065%=      5-min Rain = 0
KSP2 180214Z 20007KT M02/M07 A3005 RMK A01 T10161072  RH  066%=      5-min Rain = 0
KSP2 180215Z 20007KT M02/M07 A3005 RMK A01 T10161071  RH  066%=      5-min Rain = 0
KSP2 180216Z 20007KT M02/M07 A3005 RMK A01 T10161071  RH  066%=      5-min Rain = 0
KSP2 180217Z 20007KT M02/M07 A3005 RMK A01 T10171071  RH  067%=      5-min Rain = 0
KSP2 180218Z 21008KT M02/M07 A3005 RMK A01 T10171070  RH  067%=      5-min Rain = 0
KSP2 180219Z 21008KT M02/M07 A3005 RMK A01 T10161068  RH  068%=      5-min Rain = 0
KSP2 180220Z 21008KT M01/M07 A3005 RMK A01 T10131065  RH  068%=      5-min Rain = 0
KSP2 180221Z 21006KT M01/M07 A3005 RMK A01 T10121065  RH  067%=      5-min Rain = 0
KSP2 180222Z 21006KT M01/M07 A3005 RMK A01 T10121068  RH  066%=      5-min Rain = 0
KSP2 180223Z 21006KT M01/M07 A3005 RMK A01 T10141069  RH  066%=      5-min Rain = 0
KSP2 180224Z 21006KT M02/M07 A3005 RMK A01 T10151070  RH  066%=      5-min Rain = 0
KSP2 180225Z 21006KT M02/M07 A3005 RMK A01 T10161069  RH  067%=      5-min Rain = 0
KSP2 180226Z 21006KT M02/M07 A3005 RMK A01 T10161069  RH  067%=      5-min Rain = 0
KSP2 180227Z 21006KT M02/M07 A3005 RMK A01 T10171070  RH  067%=      5-min Rain = 0
KSP2 180228Z 21006KT M02/M07 A3005 RMK A01 T10181071  RH  067%=      5-min Rain = 0
KSP2 180229Z 21007KT M02/M07 A3005 RMK A01 T10191071  RH  068%=      5-min Rain = 0
KSP2 180230Z 21008KT M02/M07 A3005 RMK A01 T10201071  RH  068%=      5-min Rain = 0
KSP2 180231Z 21008KT M02/M07 A3005 RMK A01 T10201072  RH  068%=      5-min Rain = 0
KSP2 180232Z 22007KT M02/M07 A3005 RMK A01 T10201072  RH  068%=      5-min Rain = 0
KSP2 180233Z 21008KT M02/M07 A3005 RMK A01 T10201072  RH  068%=      5-min Rain = 0
KSP2 180234Z 22007KT M02/M07 A3005 RMK A01 T10201072  RH  068%=      5-min Rain = 0
KSP2 180235Z 22006KT M02/M07 A3005 RMK A01 T10201072  RH  068%=      5-min Rain = 0
KSP2 180236Z 22006KT M02/M07 A3005 RMK A01 T10201071  RH  068%=      5-min Rain = 0
KSP2 180237Z 22005KT M02/M07 A3005 RMK A01 T10201071  RH  068%=      5-min Rain = 0
KSP2 180238Z 22006KT M02/M07 A3005 RMK A01 T10211072  RH  068%=      5-min Rain = 0
KSP2 180239Z 21006KT M02/M07 A3005 RMK A01 T10221072  RH  068%=      5-min Rain = 0
KSP2 180240Z 21006KT M02/M07 A3005 RMK A01 T10231073  RH  069%=      5-min Rain = 0
KSP2 180241Z 21007KT M02/M07 A3005 RMK A01 T10241072  RH  070%=      5-min Rain = 0
KSP2 180242Z 21007KT M02/M07 A3005 RMK A01 T10241070  RH  070%=      5-min Rain = 0
KSP2 180243Z 21007KT M02/M07 A3005 RMK A01 T10231069  RH  070%=      5-min Rain = 0
KSP2 180244Z 21008KT M02/M07 A3005 RMK A01 T10221069  RH  070%=      5-min Rain = 0
KSP2 180245Z 21008KT M02/M07 A3005 RMK A01 T10231070  RH  070%=      5-min Rain = 0
KSP2 180246Z 22008KT M02/M07 A3005 RMK A01 T10231070  RH  070%=      5-min Rain = 0
KSP2 180247Z 22007KT M02/M07 A3005 RMK A01 T10231070  RH  070%=      5-min Rain = 0
KSP2 180248Z 22006KT M02/M07 A3005 RMK A01 T10221070  RH  070%=      5-min Rain = 0
KSP2 180249Z 22006KT M02/M07 A3005 RMK A01 T10221070  RH  070%=      5-min Rain = 0
KSP2 180250Z 22006KT M02/M07 A3005 RMK A01 T10221070  RH  070%=      5-min Rain = 0
KSP2 180251Z 22007KT M02/M07 A3005 RMK A01 T10231072  RH  069%=      5-min Rain = 0
KSP2 180252Z 22006KT M02/M07 A3005 RMK A01 T10241072  RH  070%=      5-min Rain = 0
KSP2 180253Z 22007KT M02/M07 A3005 RMK A01 T10241070  RH  071%=      5-min Rain = 0
KSP2 180254Z 22006KT M02/M07 A3005 RMK A01 T10231067  RH  072%=      5-min Rain = 0
KSP2 180255Z 22006KT M02/M07 A3005 RMK A01 T10211066  RH  072%=      5-min Rain = 0
KSP2 180256Z 22006KT M02/M07 A3005 RMK A01 T10201065  RH  071%=      5-min Rain = 0
KSP2 180257Z 22006KT M02/M06 A3005 RMK A01 T10191063  RH  071%=      5-min Rain = 0
KSP2 180258Z 22007KT M02/M07 A3005 RMK A01 T10191066  RH  070%=      5-min Rain = 0
KSP2 180259Z 22007KT M02/M07 A3005 RMK A01 T10191067  RH  070%=      5-min Rain = 0
KSP2 180300Z 22007KT M02/M07 A3005 RMK A01 T10201066  RH  071%=      5-min Rain = 0
KSP2 180301Z 22007KT M02/M07 A3004 RMK A01 T10201065  RH  071%=      5-min Rain = 0
KSP2 180302Z 21007KT M02/M06 A3004 RMK A01 T10191064  RH  072%=      5-min Rain = 0
KSP2 180303Z 22006KT M02/M06 A3004 RMK A01 T10181062  RH  071%=      5-min Rain = 0
KSP2 180304Z 21006KT M02/M06 A3004 RMK A01 T10171063  RH  071%=      5-min Rain = 0
KSP2 180305Z 21006KT M02/M06 A3004 RMK A01 T10171062  RH  071%=      5-min Rain = 0
KSP2 180306Z 21006KT M02/M06 A3004 RMK A01 T10161061  RH  071%=      5-min Rain = 0
KSP2 180307Z 22006KT M02/M06 A3004 RMK A01 T10151060  RH  071%=      5-min Rain = 0
KSP2 180308Z 22005KT M01/M06 A3004 RMK A01 T10141059  RH  071%=      5-min Rain = 0
KSP2 180309Z 21006KT M01/M06 A3004 RMK A01 T10131059  RH  071%=      5-min Rain = 0
KSP2 180310Z 21006KT M01/M06 A3004 RMK A01 T10121058  RH  071%=      5-min Rain = 0
KSP2 180311Z 21006KT M01/M06 A3004 RMK A01 T10111059  RH  070%=      5-min Rain = 0
KSP2 180312Z 21006KT M01/M06 A3004 RMK A01 T10131061  RH  069%=      5-min Rain = 0
KSP2 180313Z 20007KT M01/M06 A3004 RMK A01 T10141062  RH  069%=      5-min Rain = 0
KSP2 180314Z 21007KT M01/M06 A3004 RMK A01 T10141061  RH  070%=      5-min Rain = 0
KSP2 180315Z 21007KT M01/M06 A3004 RMK A01 T10131059  RH  071%=      5-min Rain = 0
KSP2 180316Z 21007KT M01/M06 A3004 RMK A01 T10121057  RH  071%=      5-min Rain = 0
KSP2 180317Z 21007KT M01/M06 A3004 RMK A01 T10101056  RH  071%=      5-min Rain = 0
KSP2 180318Z 21007KT M01/M06 A3004 RMK A01 T10101057  RH  071%=      5-min Rain = 0
KSP2 180319Z 20007KT M01/M06 A3004 RMK A01 T10091056  RH  070%=      5-min Rain = 0
KSP2 180320Z 20007KT M01/M06 A3004 RMK A01 T10091056  RH  070%=      5-min Rain = 0
KSP2 180321Z 20006KT M01/M06 A3004 RMK A01 T10091056  RH  070%=      5-min Rain = 0
KSP2 180322Z 19006KT M01/M06 A3004 RMK A01 T10091056  RH  070%=      5-min Rain = 0
KSP2 180323Z 20007KT M01/M06 A3004 RMK A01 T10091056  RH  070%=      5-min Rain = 0
KSP2 180324Z 20007KT M01/M06 A3004 RMK A01 T10081055  RH  070%=      5-min Rain = 0
KSP2 180325Z 20007KT M01/M05 A3004 RMK A01 T10061054  RH  070%=      5-min Rain = 0
KSP2 180326Z 21007KT M01/M06 A3004 RMK A01 T10061055  RH  069%=      5-min Rain = 0
KSP2 180327Z 21007KT M01/M06 A3004 RMK A01 T10061055  RH  069%=      5-min Rain = 0
KSP2 180328Z 21007KT M01/M06 A3004 RMK A01 T10061055  RH  069%=      5-min Rain = 0
KSP2 180329Z 21007KT M01/M06 A3004 RMK A01 T10051055  RH  069%=      5-min Rain = 0
KSP2 180330Z 21007KT M01/M06 A3003 RMK A01 T10051055  RH  069%=      5-min Rain = 0
KSP2 180331Z 21007KT M00/M05 A3003 RMK A01 T10041054  RH  069%=      5-min Rain = 0
KSP2 180332Z 21007KT M00/M06 A3003 RMK A01 T10041055  RH  069%=      5-min Rain = 0
KSP2 180333Z 21007KT M00/M06 A3003 RMK A01 T10041055  RH  068%=      5-min Rain = 0
KSP2 180334Z 21008KT M00/M06 A3003 RMK A01 T10031055  RH  068%=      5-min Rain = 0
KSP2 180335Z 21008KT M00/M06 A3003 RMK A01 T10041055  RH  068%=      5-min Rain = 0
KSP2 180336Z 21008KT M00/M06 A3003 RMK A01 T10041056  RH  068%=      5-min Rain = 0
KSP2 180337Z 22008KT M00/M06 A3003 RMK A01 T10031055  RH  068%=      5-min Rain = 0
KSP2 180338Z 21008KT M00/M06 A3003 RMK A01 T10031055  RH  068%=      5-min Rain = 0
KSP2 180339Z 21008KT M00/M06 A3003 RMK A01 T10031056  RH  067%=      5-min Rain = 0
KSP2 180340Z 21007KT M00/M06 A3003 RMK A01 T10031056  RH  068%=      5-min Rain = 0
KSP2 180341Z 21007KT M00/M06 A3003 RMK A01 T10031056  RH  068%=      5-min Rain = 0
KSP2 180342Z 21007KT M00/M06 A3003 RMK A01 T10041056  RH  068%=      5-min Rain = 0
KSP2 180343Z 21007KT M00/M06 A3003 RMK A01 T10041056  RH  068%=      5-min Rain = 0
KSP2 180344Z 21007KT M00/M06 A3003 RMK A01 T10041056  RH  068%=      5-min Rain = 0
KSP2 180345Z 22006KT M00/M06 A3003 RMK A01 T10041056  RH  068%=      5-min Rain = 0
KSP2 180346Z 22006KT M00/M06 A3003 RMK A01 T10041057  RH  067%=      5-min Rain = 0
KSP2 180347Z 22006KT M01/M06 A3003 RMK A01 T10051057  RH  067%=      5-min Rain = 0
KSP2 180348Z 22006KT M01/M06 A3003 RMK A01 T10051058  RH  067%=      5-min Rain = 0
KSP2 180349Z 22005KT M01/M06 A3003 RMK A01 T10061059  RH  067%=      5-min Rain = 0
KSP2 180350Z 22006KT M01/M06 A3003 RMK A01 T10081060  RH  068%=      5-min Rain = 0
KSP2 180351Z 22006KT M01/M06 A3003 RMK A01 T10101061  RH  069%=      5-min Rain = 0
KSP2 180352Z 22006KT M01/M06 A3003 RMK A01 T10121061  RH  069%=      5-min Rain = 0
KSP2 180353Z 22006KT M01/M06 A3003 RMK A01 T10131061  RH  070%=      5-min Rain = 0
KSP2 180354Z 22006KT M01/M06 A3002 RMK A01 T10141062  RH  070%=      5-min Rain = 0
KSP2 180355Z 22006KT M02/M06 A3002 RMK A01 T10161062  RH  071%=      5-min Rain = 0
KSP2 180356Z 22007KT M02/M06 A3002 RMK A01 T10161061  RH  071%=      5-min Rain = 0
KSP2 180357Z 21007KT M02/M06 A3002 RMK A01 T10151060  RH  072%=      5-min Rain = 0
KSP2 180358Z 21006KT M01/M06 A3002 RMK A01 T10141059  RH  071%=      5-min Rain = 0
KSP2 180359Z 21007KT M01/M06 A3002 RMK A01 T10141059  RH  071%=      5-min Rain = 0
KSP2 180400Z 21007KT M01/M06 A3002 RMK A01 T10131058  RH  071%=      5-min Rain = 0
KSP2 180401Z 21007KT M01/M06 A3002 RMK A01 T10131058  RH  072%=      5-min Rain = 0
KSP2 180402Z 21006KT M01/M06 A3002 RMK A01 T10121057  RH  072%=      5-min Rain = 0
KSP2 180403Z 21007KT M01/M06 A3002 RMK A01 T10121056  RH  072%=      5-min Rain = 0
KSP2 180404Z 21006KT M01/M06 A3002 RMK A01 T10111055  RH  072%=      5-min Rain = 0
KSP2 180405Z 21006KT M01/M06 A3002 RMK A01 T10101055  RH  072%=      5-min Rain = 0
KSP2 180406Z 21007KT M01/M06 A3002 RMK A01 T10101055  RH  072%=      5-min Rain = 0
KSP2 180407Z 21007KT M01/M05 A3002 RMK A01 T10091054  RH  072%=      5-min Rain = 0
KSP2 180408Z 21008KT M01/M05 A3002 RMK A01 T10071052  RH  072%=      5-min Rain = 0
KSP2 180409Z 21009KT M01/M05 A3001 RMK A01 T10051051  RH  071%=      5-min Rain = 0
KSP2 180410Z 21009KT M00/M05 A3001 RMK A01 T10031051  RH  070%=      5-min Rain = 0
KSP2 180411Z 21009KT M00/M05 A3001 RMK A01 T10021052  RH  069%=      5-min Rain = 0
KSP2 180412Z 21010KT M00/M05 A3001 RMK A01 T10011052  RH  069%=      5-min Rain = 0
KSP2 180413Z 21009KT 00/05 A3001 RMK A01 T00-00-52  RH  068%=      5-min Rain = 0
KSP2 180414Z 21009KT 00/05 A3001 RMK A01 T00000-52  RH  068%=      5-min Rain = 0
KSP2 180415Z 21009KT 00/05 A3001 RMK A01 T00000-52  RH  068%=      5-min Rain = 0
KSP2 180416Z 21008KT 00/M05 A3001 RMK A01 T00011052  RH  068%=      5-min Rain = 0
KSP2 180417Z 21008KT 00/M05 A3001 RMK A01 T00011051  RH  068%=      5-min Rain = 0
KSP2 180418Z 21008KT 00/05 A3001 RMK A01 T00000-52  RH  068%=      5-min Rain = 0
KSP2 180419Z 21008KT 00/05 A3001 RMK A01 T00-00-52  RH  068%=      5-min Rain = 0
KSP2 180420Z 20008KT 00/05 A3001 RMK A01 T00-00-52  RH  068%=      5-min Rain = 0
KSP2 180421Z 20007KT 00/05 A3001 RMK A01 T00-00-51  RH  069%=      5-min Rain = 0
KSP2 180422Z 20006KT 00/05 A3001 RMK A01 T00-00-51  RH  069%=      5-min Rain = 0
KSP2 180423Z 20006KT M00/M05 A3001 RMK A01 T10021052  RH  069%=      5-min Rain = 0
KSP2 180424Z 20006KT M01/M05 A3001 RMK A01 T10051054  RH  069%=      5-min Rain = 0
KSP2 180425Z 21006KT M01/M05 A3001 RMK A01 T10061054  RH  070%=      5-min Rain = 0
KSP2 180426Z 21006KT M01/M05 A3001 RMK A01 T10071054  RH  070%=      5-min Rain = 0
KSP2 180427Z 21007KT M01/M05 A3001 RMK A01 T10071053  RH  071%=      5-min Rain = 0
KSP2 180428Z 20007KT M01/M05 A3001 RMK A01 T10071053  RH  071%=      5-min Rain = 0
KSP2 180429Z 20008KT M01/M05 A3001 RMK A01 T10081053  RH  071%=      5-min Rain = 0
KSP2 180430Z 20007KT M01/M05 A3001 RMK A01 T10091053  RH  072%=      5-min Rain = 0
KSP2 180431Z 20007KT M01/M05 A3001 RMK A01 T10091053  RH  072%=      5-min Rain = 0
KSP2 180432Z 21008KT M01/M05 A3001 RMK A01 T10091053  RH  072%=      5-min Rain = 0
KSP2 180433Z 21008KT M01/M05 A30 RMK A01 T10091053  RH  072%=      5-min Rain = 0
KSP2 180434Z 20008KT M01/M05 A30 RMK A01 T10091053  RH  072%=      5-min Rain = 0
KSP2 180435Z 21009KT M01/M05 A30 RMK A01 T10091053  RH  072%=      5-min Rain = 0
KSP2 180436Z 21008KT M01/M05 A30 RMK A01 T10091053  RH  072%=      5-min Rain = 0
KSP2 180437Z 21009KT M01/M05 A30 RMK A01 T10101054  RH  072%=      5-min Rain = 0
KSP2 180438Z 21009KT M01/M05 A30 RMK A01 T10091053  RH  072%=      5-min Rain = 0
KSP2 180439Z 21008KT M01/M05 A30 RMK A01 T10081052  RH  072%=      5-min Rain = 0
KSP2 180440Z 21008KT M01/M05 A30 RMK A01 T10081052  RH  072%=      5-min Rain = 0
KSP2 180441Z 21007KT M01/M05 A30 RMK A01 T10071052  RH  072%=      5-min Rain = 0
KSP2 180442Z 21007KT M01/M05 A30 RMK A01 T10071052  RH  071%=      5-min Rain = 0
KSP2 180443Z 21007KT M01/M05 A30 RMK A01 T10071052  RH  071%=      5-min Rain = 0
KSP2 180444Z 21007KT M01/M05 A30 RMK A01 T10071053  RH  071%=      5-min Rain = 0
KSP2 180445Z 21008KT M01/M05 A30 RMK A01 T10081052  RH  072%=      5-min Rain = 0
KSP2 180446Z 20007KT M01/M05 A30 RMK A01 T10081052  RH  072%=      5-min Rain = 0
KSP2 180447Z 20007KT M01/M05 A30 RMK A01 T10101054  RH  072%=      5-min Rain = 0
KSP2 180448Z 20007KT M01/M06 A30 RMK A01 T10111055  RH  072%=      5-min Rain = 0
KSP2 180449Z 19007KT M01/M05 A30 RMK A01 T10111054  RH  073%=      5-min Rain = 0
KSP2 180450Z 19007KT M01/M05 A30 RMK A01 T10111054  RH  073%=      5-min Rain = 0
KSP2 180451Z 19006KT M01/M06 A30 RMK A01 T10131055  RH  073%=      5-min Rain = 0
KSP2 180452Z 19006KT M02/M06 A30 RMK A01 T10151057  RH  073%=      5-min Rain = 0
KSP2 180453Z 19006KT M02/M06 A30 RMK A01 T10171058  RH  074%=      5-min Rain = 0
KSP2 180454Z 19006KT M02/M06 A30 RMK A01 T10181057  RH  074%=      5-min Rain = 0
KSP2 180455Z 19007KT M02/M06 A30 RMK A01 T10191057  RH  075%=      5-min Rain = 0
KSP2 180456Z 20007KT M02/M06 A30 RMK A01 T10191057  RH  075%=      5-min Rain = 0
KSP2 180457Z 20007KT M02/M06 A30 RMK A01 T10191057  RH  075%=      5-min Rain = 0
KSP2 180458Z 20007KT M02/M06 A30 RMK A01 T10201058  RH  075%=      5-min Rain = 0
KSP2 180459Z 21007KT M02/M06 A30 RMK A01 T10211059  RH  075%=      5-min Rain = 0
KSP2 180500Z 21007KT M02/M06 A30 RMK A01 T10211059  RH  075%=      5-min Rain = 0
KSP2 180501Z 21008KT M02/M06 A30 RMK A01 T10211059  RH  076%=      5-min Rain = 0
KSP2 180502Z 21008KT M02/M06 A30 RMK A01 T10211057  RH  076%=      5-min Rain = 0
KSP2 180503Z 21008KT M02/M06 A30 RMK A01 T10191056  RH  076%=      5-min Rain = 0
KSP2 180504Z 22008KT M02/M06 A30 RMK A01 T10191057  RH  075%=      5-min Rain = 0
KSP2 180505Z 21008KT M02/M06 A30 RMK A01 T10191057  RH  075%=      5-min Rain = 0
KSP2 180506Z 21007KT M02/M06 A30 RMK A01 T10191058  RH  075%=      5-min Rain = 0
KSP2 180507Z 21007KT M02/M06 A30 RMK A01 T10191058  RH  075%=      5-min Rain = 0
KSP2 180508Z 21007KT M02/M06 A30 RMK A01 T10211059  RH  075%=      5-min Rain = 0
KSP2 180509Z 20008KT M02/M06 A30 RMK A01 T10221060  RH  075%=      5-min Rain = 0
KSP2 180510Z 21007KT M02/M06 A2999 RMK A01 T10231061  RH  075%=      5-min Rain = 0
KSP2 180511Z 20007KT M03/M06 A2999 RMK A01 T10251062  RH  076%=      5-min Rain = 0
KSP2 180512Z 21007KT M03/M06 A30 RMK A01 T10271063  RH  076%=      5-min Rain = 0
KSP2 180513Z 21007KT M03/M06 A2999 RMK A01 T10281063  RH  077%=      5-min Rain = 0
KSP2 180514Z 21007KT M03/M06 A2999 RMK A01 T10281062  RH  078%=      5-min Rain = 0
KSP2 180515Z 20007KT M03/M06 A2999 RMK A01 T10291062  RH  078%=      5-min Rain = 0
KSP2 180516Z 20007KT M03/M06 A2999 RMK A01 T10281061  RH  078%=      5-min Rain = 0
KSP2 180517Z 21007KT M03/M06 A2999 RMK A01 T10281061  RH  078%=      5-min Rain = 0
KSP2 180518Z 21007KT M03/M06 A2999 RMK A01 T10271061  RH  078%=      5-min Rain = 0
KSP2 180519Z 21007KT M03/M06 A2999 RMK A01 T10271061  RH  077%=      5-min Rain = 0
KSP2 180520Z 21007KT M03/M06 A2999 RMK A01 T10271061  RH  077%=      5-min Rain = 0
KSP2 180521Z 21007KT M03/M06 A2999 RMK A01 T10271062  RH  077%=      5-min Rain = 0
KSP2 180522Z 21007KT M03/M06 A2999 RMK A01 T10271062  RH  077%=      5-min Rain = 0
KSP2 180523Z 21006KT M03/M06 A2999 RMK A01 T10281063  RH  077%=      5-min Rain = 0
KSP2 180524Z 21007KT M03/M06 A2999 RMK A01 T10291063  RH  077%=      5-min Rain = 0
KSP2 180525Z 20006KT M03/M06 A2999 RMK A01 T10291062  RH  078%=      5-min Rain = 0
KSP2 180526Z 20006KT M03/M06 A2999 RMK A01 T10291062  RH  078%=      5-min Rain = 0
KSP2 180527Z 20007KT M03/M06 A2999 RMK A01 T10291062  RH  078%=      5-min Rain = 0
KSP2 180528Z 20007KT M03/M06 A2999 RMK A01 T10291061  RH  078%=      5-min Rain = 0
KSP2 180529Z 20008KT M03/M06 A2999 RMK A01 T10281060  RH  078%=      5-min Rain = 0
KSP2 180530Z 20007KT M03/M06 A2998 RMK A01 T10281060  RH  078%=      5-min Rain = 0
KSP2 180531Z 20006KT M03/M06 A2998 RMK A01 T10271060  RH  078%=      5-min Rain = 0
KSP2 180532Z 20006KT M03/M06 A2998 RMK A01 T10261059  RH  078%=      5-min Rain = 0
KSP2 180533Z 20006KT M03/M06 A2998 RMK A01 T10261060  RH  078%=      5-min Rain = 0
KSP2 180534Z 20006KT M03/M06 A2998 RMK A01 T10261060  RH  077%=      5-min Rain = 0
KSP2 180535Z 21006KT M03/M06 A2998 RMK A01 T10261061  RH  077%=      5-min Rain = 0
KSP2 180536Z 20006KT M03/M06 A2998 RMK A01 T10271062  RH  077%=      5-min Rain = 0
KSP2 180537Z 20006KT M03/M06 A2998 RMK A01 T10281063  RH  077%=      5-min Rain = 0
KSP2 180538Z 20006KT M03/M06 A2998 RMK A01 T10281062  RH  078%=      5-min Rain = 0
KSP2 180539Z 20006KT M03/M06 A2998 RMK A01 T10271060  RH  078%=      5-min Rain = 0
KSP2 180540Z 21006KT M03/M06 A2998 RMK A01 T10271061  RH  078%=      5-min Rain = 0
KSP2 180541Z 21006KT M03/M06 A2998 RMK A01 T10261060  RH  077%=      5-min Rain = 0
KSP2 180542Z 21006KT M03/M06 A2998 RMK A01 T10251060  RH  077%=      5-min Rain = 0
KSP2 180543Z 21006KT M02/M06 A2998 RMK A01 T10231058  RH  077%=      5-min Rain = 0
KSP2 180544Z 20006KT M02/M06 A2998 RMK A01 T10221057  RH  077%=      5-min Rain = 0
KSP2 180545Z 21006KT M02/M06 A2998 RMK A01 T10211057  RH  076%=      5-min Rain = 0
KSP2 180546Z 21006KT M02/M06 A2997 RMK A01 T10201057  RH  076%=      5-min Rain = 0
KSP2 180547Z 21006KT M02/M06 A2997 RMK A01 T10201057  RH  075%=      5-min Rain = 0
KSP2 180548Z 21007KT M02/M06 A2997 RMK A01 T10201058  RH  075%=      5-min Rain = 0
KSP2 180549Z 21007KT M02/M06 A2997 RMK A01 T10201059  RH  075%=      5-min Rain = 0
KSP2 180550Z 21007KT M02/M06 A2997 RMK A01 T10221061  RH  074%=      5-min Rain = 0
KSP2 180551Z 21007KT M02/M06 A2997 RMK A01 T10231062  RH  075%=      5-min Rain = 0
KSP2 180552Z 21007KT M03/M06 A2997 RMK A01 T10251063  RH  075%=      5-min Rain = 0
KSP2 180553Z 21007KT M03/M06 A2997 RMK A01 T10261064  RH  075%=      5-min Rain = 0
KSP2 180554Z 20007KT M03/M06 A2997 RMK A01 T10281064  RH  076%=      5-min Rain = 0
KSP2 180555Z 21007KT M03/M06 A2997 RMK A01 T10281064  RH  076%=      5-min Rain = 0
KSP2 180556Z 21007KT M03/M06 A2997 RMK A01 T10291064  RH  077%=      5-min Rain = 0
KSP2 180557Z 21008KT M03/M06 A2997 RMK A01 T10291063  RH  077%=      5-min Rain = 0
KSP2 180558Z 21008KT M03/M06 A2997 RMK A01 T10281062  RH  077%=      5-min Rain = 0
KSP2 180559Z 21008KT M03/M06 A2997 RMK A01 T10281061  RH  078%=      5-min Rain = 0

Page generated in 0.114 seconds.